<?xml version="1.0" encoding="UTF-8" standalone="no" ?>
<gpx xmlns="http://www.topografix.com/GPX/1/1" xmlns:xsi="http://www.w3.org/2001/XMLSchema-instance" xsi:schemaLocation="http://www.topografix.com/GPX/1/1 http://www.topografix.com/GPX/1/1/gpx.xsd" version="1.1" creator="VisuGPX - https://www.visugpx.com">
  <metadata>
    <name>Berges Conflans - Etang du Corra MA-Rando-2019-07-24</name>
  </metadata>
  <trk>
    <name><![CDATA[MA-Rando-2019-07-24-180453]]></name>
    <trkseg>
      <trkpt lat="48.99027" lon="2.08602">
        <ele>25</ele>
        <time>2019-07-24T16:29:05Z</time>
      </trkpt>
      <trkpt lat="48.99023" lon="2.08589">
        <ele>24</ele>
        <time>2019-07-24T16:29:17Z</time>
      </trkpt>
      <trkpt lat="48.9902" lon="2.08575">
        <ele>25</ele>
        <time>2019-07-24T16:29:25Z</time>
      </trkpt>
      <trkpt lat="48.99017" lon="2.08562">
        <ele>26</ele>
        <time>2019-07-24T16:29:33Z</time>
      </trkpt>
      <trkpt lat="48.99013" lon="2.08548">
        <ele>27</ele>
        <time>2019-07-24T16:29:40Z</time>
      </trkpt>
      <trkpt lat="48.99011" lon="2.08534">
        <ele>27</ele>
        <time>2019-07-24T16:29:46Z</time>
      </trkpt>
      <trkpt lat="48.99008" lon="2.0852">
        <ele>26</ele>
        <time>2019-07-24T16:29:53Z</time>
      </trkpt>
      <trkpt lat="48.99004" lon="2.08505">
        <ele>24</ele>
        <time>2019-07-24T16:30:00Z</time>
      </trkpt>
      <trkpt lat="48.99004" lon="2.0849">
        <ele>26</ele>
        <time>2019-07-24T16:30:08Z</time>
      </trkpt>
      <trkpt lat="48.99001" lon="2.08474">
        <ele>27</ele>
        <time>2019-07-24T16:30:15Z</time>
      </trkpt>
      <trkpt lat="48.98999" lon="2.0846">
        <ele>22</ele>
        <time>2019-07-24T16:30:21Z</time>
      </trkpt>
      <trkpt lat="48.98996" lon="2.08446">
        <ele>22</ele>
        <time>2019-07-24T16:30:29Z</time>
      </trkpt>
      <trkpt lat="48.98993" lon="2.08431">
        <ele>22</ele>
        <time>2019-07-24T16:30:35Z</time>
      </trkpt>
      <trkpt lat="48.9899" lon="2.08416">
        <ele>22</ele>
        <time>2019-07-24T16:30:44Z</time>
      </trkpt>
      <trkpt lat="48.98988" lon="2.08401">
        <ele>22</ele>
        <time>2019-07-24T16:30:50Z</time>
      </trkpt>
      <trkpt lat="48.98986" lon="2.08387">
        <ele>22</ele>
        <time>2019-07-24T16:30:58Z</time>
      </trkpt>
      <trkpt lat="48.98983" lon="2.08373">
        <ele>22</ele>
        <time>2019-07-24T16:31:03Z</time>
      </trkpt>
      <trkpt lat="48.98978" lon="2.08359">
        <ele>22</ele>
        <time>2019-07-24T16:31:12Z</time>
      </trkpt>
      <trkpt lat="48.98976" lon="2.08344">
        <ele>23</ele>
        <time>2019-07-24T16:31:18Z</time>
      </trkpt>
      <trkpt lat="48.98976" lon="2.0833">
        <ele>23</ele>
        <time>2019-07-24T16:31:22Z</time>
      </trkpt>
      <trkpt lat="48.98976" lon="2.08316">
        <ele>23</ele>
        <time>2019-07-24T16:31:29Z</time>
      </trkpt>
      <trkpt lat="48.98973" lon="2.083">
        <ele>22</ele>
        <time>2019-07-24T16:31:35Z</time>
      </trkpt>
      <trkpt lat="48.98972" lon="2.08285">
        <ele>22</ele>
        <time>2019-07-24T16:31:47Z</time>
      </trkpt>
      <trkpt lat="48.9897" lon="2.0827">
        <ele>22</ele>
        <time>2019-07-24T16:31:55Z</time>
      </trkpt>
      <trkpt lat="48.98966" lon="2.08255">
        <ele>22</ele>
        <time>2019-07-24T16:32:02Z</time>
      </trkpt>
      <trkpt lat="48.98956" lon="2.08251">
        <ele>21</ele>
        <time>2019-07-24T16:32:09Z</time>
      </trkpt>
      <trkpt lat="48.98947" lon="2.08255">
        <ele>21</ele>
        <time>2019-07-24T16:32:17Z</time>
      </trkpt>
      <trkpt lat="48.98938" lon="2.08262">
        <ele>20</ele>
        <time>2019-07-24T16:32:24Z</time>
      </trkpt>
      <trkpt lat="48.9893" lon="2.0827">
        <ele>20</ele>
        <time>2019-07-24T16:32:32Z</time>
      </trkpt>
      <trkpt lat="48.98921" lon="2.08276">
        <ele>20</ele>
        <time>2019-07-24T16:32:38Z</time>
      </trkpt>
      <trkpt lat="48.98912" lon="2.08282">
        <ele>19</ele>
        <time>2019-07-24T16:32:44Z</time>
      </trkpt>
      <trkpt lat="48.98903" lon="2.08286">
        <ele>19</ele>
        <time>2019-07-24T16:32:50Z</time>
      </trkpt>
      <trkpt lat="48.98893" lon="2.08291">
        <ele>19</ele>
        <time>2019-07-24T16:32:58Z</time>
      </trkpt>
      <trkpt lat="48.98883" lon="2.08295">
        <ele>19</ele>
        <time>2019-07-24T16:33:05Z</time>
      </trkpt>
      <trkpt lat="48.98873" lon="2.08301">
        <ele>20</ele>
        <time>2019-07-24T16:33:10Z</time>
      </trkpt>
      <trkpt lat="48.98864" lon="2.08306">
        <ele>20</ele>
        <time>2019-07-24T16:33:17Z</time>
      </trkpt>
      <trkpt lat="48.98855" lon="2.08311">
        <ele>20</ele>
        <time>2019-07-24T16:33:24Z</time>
      </trkpt>
      <trkpt lat="48.98846" lon="2.08313">
        <ele>21</ele>
        <time>2019-07-24T16:33:31Z</time>
      </trkpt>
      <trkpt lat="48.98837" lon="2.08317">
        <ele>21</ele>
        <time>2019-07-24T16:33:37Z</time>
      </trkpt>
      <trkpt lat="48.98828" lon="2.08321">
        <ele>23</ele>
        <time>2019-07-24T16:33:43Z</time>
      </trkpt>
      <trkpt lat="48.98819" lon="2.08324">
        <ele>23</ele>
        <time>2019-07-24T16:33:49Z</time>
      </trkpt>
      <trkpt lat="48.9881" lon="2.08328">
        <ele>23</ele>
        <time>2019-07-24T16:33:56Z</time>
      </trkpt>
      <trkpt lat="48.98802" lon="2.08335">
        <ele>23</ele>
        <time>2019-07-24T16:34:03Z</time>
      </trkpt>
      <trkpt lat="48.98794" lon="2.08344">
        <ele>23</ele>
        <time>2019-07-24T16:34:09Z</time>
      </trkpt>
      <trkpt lat="48.98785" lon="2.08355">
        <ele>23</ele>
        <time>2019-07-24T16:34:16Z</time>
      </trkpt>
      <trkpt lat="48.98777" lon="2.08364">
        <ele>23</ele>
        <time>2019-07-24T16:34:22Z</time>
      </trkpt>
      <trkpt lat="48.98769" lon="2.08373">
        <ele>22</ele>
        <time>2019-07-24T16:34:28Z</time>
      </trkpt>
      <trkpt lat="48.98761" lon="2.08382">
        <ele>22</ele>
        <time>2019-07-24T16:34:33Z</time>
      </trkpt>
      <trkpt lat="48.98752" lon="2.08386">
        <ele>22</ele>
        <time>2019-07-24T16:34:40Z</time>
      </trkpt>
      <trkpt lat="48.98743" lon="2.08389">
        <ele>23</ele>
        <time>2019-07-24T16:34:46Z</time>
      </trkpt>
      <trkpt lat="48.98734" lon="2.08394">
        <ele>23</ele>
        <time>2019-07-24T16:34:52Z</time>
      </trkpt>
      <trkpt lat="48.98724" lon="2.08398">
        <ele>23</ele>
        <time>2019-07-24T16:34:59Z</time>
      </trkpt>
      <trkpt lat="48.98716" lon="2.08403">
        <ele>24</ele>
        <time>2019-07-24T16:35:05Z</time>
      </trkpt>
      <trkpt lat="48.98706" lon="2.08409">
        <ele>24</ele>
        <time>2019-07-24T16:35:11Z</time>
      </trkpt>
      <trkpt lat="48.98697" lon="2.08415">
        <ele>24</ele>
        <time>2019-07-24T16:35:17Z</time>
      </trkpt>
      <trkpt lat="48.98688" lon="2.08419">
        <ele>24</ele>
        <time>2019-07-24T16:35:22Z</time>
      </trkpt>
      <trkpt lat="48.98679" lon="2.08424">
        <ele>24</ele>
        <time>2019-07-24T16:35:28Z</time>
      </trkpt>
      <trkpt lat="48.98669" lon="2.0843">
        <ele>24</ele>
        <time>2019-07-24T16:35:36Z</time>
      </trkpt>
      <trkpt lat="48.98659" lon="2.08433">
        <ele>24</ele>
        <time>2019-07-24T16:35:43Z</time>
      </trkpt>
      <trkpt lat="48.98651" lon="2.08439">
        <ele>24</ele>
        <time>2019-07-24T16:35:50Z</time>
      </trkpt>
      <trkpt lat="48.98642" lon="2.08444">
        <ele>24</ele>
        <time>2019-07-24T16:35:57Z</time>
      </trkpt>
      <trkpt lat="48.98634" lon="2.08452">
        <ele>24</ele>
        <time>2019-07-24T16:36:03Z</time>
      </trkpt>
      <trkpt lat="48.98624" lon="2.08455">
        <ele>24</ele>
        <time>2019-07-24T16:36:11Z</time>
      </trkpt>
      <trkpt lat="48.98615" lon="2.08456">
        <ele>24</ele>
        <time>2019-07-24T16:36:18Z</time>
      </trkpt>
      <trkpt lat="48.98607" lon="2.08465">
        <ele>24</ele>
        <time>2019-07-24T16:36:25Z</time>
      </trkpt>
      <trkpt lat="48.98599" lon="2.08471">
        <ele>24</ele>
        <time>2019-07-24T16:36:30Z</time>
      </trkpt>
      <trkpt lat="48.9859" lon="2.08478">
        <ele>23</ele>
        <time>2019-07-24T16:36:37Z</time>
      </trkpt>
      <trkpt lat="48.98581" lon="2.08483">
        <ele>24</ele>
        <time>2019-07-24T16:36:42Z</time>
      </trkpt>
      <trkpt lat="48.98572" lon="2.08489">
        <ele>24</ele>
        <time>2019-07-24T16:36:47Z</time>
      </trkpt>
      <trkpt lat="48.98562" lon="2.08495">
        <ele>24</ele>
        <time>2019-07-24T16:36:55Z</time>
      </trkpt>
      <trkpt lat="48.98553" lon="2.08495">
        <ele>24</ele>
        <time>2019-07-24T16:37:00Z</time>
      </trkpt>
      <trkpt lat="48.98544" lon="2.08499">
        <ele>24</ele>
        <time>2019-07-24T16:37:07Z</time>
      </trkpt>
      <trkpt lat="48.98536" lon="2.08507">
        <ele>24</ele>
        <time>2019-07-24T16:37:16Z</time>
      </trkpt>
      <trkpt lat="48.98534" lon="2.08522">
        <ele>24</ele>
        <time>2019-07-24T16:37:22Z</time>
      </trkpt>
      <trkpt lat="48.98532" lon="2.08536">
        <ele>24</ele>
        <time>2019-07-24T16:37:28Z</time>
      </trkpt>
      <trkpt lat="48.9853" lon="2.0855">
        <ele>24</ele>
        <time>2019-07-24T16:37:33Z</time>
      </trkpt>
      <trkpt lat="48.98526" lon="2.08564">
        <ele>24</ele>
        <time>2019-07-24T16:37:39Z</time>
      </trkpt>
      <trkpt lat="48.98518" lon="2.08572">
        <ele>24</ele>
        <time>2019-07-24T16:37:49Z</time>
      </trkpt>
      <trkpt lat="48.98508" lon="2.08573">
        <ele>24</ele>
        <time>2019-07-24T16:37:57Z</time>
      </trkpt>
      <trkpt lat="48.98498" lon="2.08577">
        <ele>24</ele>
        <time>2019-07-24T16:38:04Z</time>
      </trkpt>
      <trkpt lat="48.9849" lon="2.08582">
        <ele>24</ele>
        <time>2019-07-24T16:38:09Z</time>
      </trkpt>
      <trkpt lat="48.9848" lon="2.08588">
        <ele>24</ele>
        <time>2019-07-24T16:38:15Z</time>
      </trkpt>
      <trkpt lat="48.98471" lon="2.08594">
        <ele>24</ele>
        <time>2019-07-24T16:38:21Z</time>
      </trkpt>
      <trkpt lat="48.98462" lon="2.08596">
        <ele>24</ele>
        <time>2019-07-24T16:38:28Z</time>
      </trkpt>
      <trkpt lat="48.98451" lon="2.08599">
        <ele>24</ele>
        <time>2019-07-24T16:38:34Z</time>
      </trkpt>
      <trkpt lat="48.98441" lon="2.08602">
        <ele>24</ele>
        <time>2019-07-24T16:38:42Z</time>
      </trkpt>
      <trkpt lat="48.98433" lon="2.08611">
        <ele>24</ele>
        <time>2019-07-24T16:38:51Z</time>
      </trkpt>
      <trkpt lat="48.98427" lon="2.08623">
        <ele>24</ele>
        <time>2019-07-24T16:38:56Z</time>
      </trkpt>
      <trkpt lat="48.98421" lon="2.08634">
        <ele>24</ele>
        <time>2019-07-24T16:39:02Z</time>
      </trkpt>
      <trkpt lat="48.98416" lon="2.08647">
        <ele>24</ele>
        <time>2019-07-24T16:39:09Z</time>
      </trkpt>
      <trkpt lat="48.9841" lon="2.08659">
        <ele>24</ele>
        <time>2019-07-24T16:39:15Z</time>
      </trkpt>
      <trkpt lat="48.98402" lon="2.08669">
        <ele>24</ele>
        <time>2019-07-24T16:39:22Z</time>
      </trkpt>
      <trkpt lat="48.98395" lon="2.0868">
        <ele>24</ele>
        <time>2019-07-24T16:39:29Z</time>
      </trkpt>
      <trkpt lat="48.98387" lon="2.08689">
        <ele>24</ele>
        <time>2019-07-24T16:39:36Z</time>
      </trkpt>
      <trkpt lat="48.98376" lon="2.08695">
        <ele>24</ele>
        <time>2019-07-24T16:39:42Z</time>
      </trkpt>
      <trkpt lat="48.98367" lon="2.08704">
        <ele>25</ele>
        <time>2019-07-24T16:39:47Z</time>
      </trkpt>
      <trkpt lat="48.98357" lon="2.08709">
        <ele>25</ele>
        <time>2019-07-24T16:39:54Z</time>
      </trkpt>
      <trkpt lat="48.98348" lon="2.08711">
        <ele>25</ele>
        <time>2019-07-24T16:40:00Z</time>
      </trkpt>
      <trkpt lat="48.98338" lon="2.08715">
        <ele>25</ele>
        <time>2019-07-24T16:40:05Z</time>
      </trkpt>
      <trkpt lat="48.98329" lon="2.08721">
        <ele>24</ele>
        <time>2019-07-24T16:40:11Z</time>
      </trkpt>
      <trkpt lat="48.9832" lon="2.08722">
        <ele>24</ele>
        <time>2019-07-24T16:40:19Z</time>
      </trkpt>
      <trkpt lat="48.9831" lon="2.08727">
        <ele>24</ele>
        <time>2019-07-24T16:40:26Z</time>
      </trkpt>
      <trkpt lat="48.98301" lon="2.0873">
        <ele>24</ele>
        <time>2019-07-24T16:40:32Z</time>
      </trkpt>
      <trkpt lat="48.98294" lon="2.0874">
        <ele>24</ele>
        <time>2019-07-24T16:40:38Z</time>
      </trkpt>
      <trkpt lat="48.98293" lon="2.08754">
        <ele>24</ele>
        <time>2019-07-24T16:40:44Z</time>
      </trkpt>
      <trkpt lat="48.98295" lon="2.0877">
        <ele>24</ele>
        <time>2019-07-24T16:40:52Z</time>
      </trkpt>
      <trkpt lat="48.98297" lon="2.08783">
        <ele>25</ele>
        <time>2019-07-24T16:40:58Z</time>
      </trkpt>
      <trkpt lat="48.98298" lon="2.08798">
        <ele>25</ele>
        <time>2019-07-24T16:41:06Z</time>
      </trkpt>
      <trkpt lat="48.98298" lon="2.08811">
        <ele>25</ele>
        <time>2019-07-24T16:41:12Z</time>
      </trkpt>
      <trkpt lat="48.983" lon="2.08825">
        <ele>25</ele>
        <time>2019-07-24T16:41:18Z</time>
      </trkpt>
      <trkpt lat="48.98299" lon="2.08839">
        <ele>25</ele>
        <time>2019-07-24T16:41:25Z</time>
      </trkpt>
      <trkpt lat="48.98292" lon="2.08848">
        <ele>25</ele>
        <time>2019-07-24T16:41:35Z</time>
      </trkpt>
      <trkpt lat="48.98285" lon="2.08861">
        <ele>25</ele>
        <time>2019-07-24T16:41:42Z</time>
      </trkpt>
      <trkpt lat="48.98278" lon="2.08872">
        <ele>25</ele>
        <time>2019-07-24T16:41:49Z</time>
      </trkpt>
      <trkpt lat="48.98273" lon="2.08883">
        <ele>25</ele>
        <time>2019-07-24T16:41:55Z</time>
      </trkpt>
      <trkpt lat="48.98266" lon="2.08894">
        <ele>24</ele>
        <time>2019-07-24T16:42:01Z</time>
      </trkpt>
      <trkpt lat="48.9826" lon="2.08905">
        <ele>24</ele>
        <time>2019-07-24T16:42:10Z</time>
      </trkpt>
      <trkpt lat="48.98251" lon="2.08912">
        <ele>24</ele>
        <time>2019-07-24T16:42:18Z</time>
      </trkpt>
      <trkpt lat="48.98241" lon="2.08915">
        <ele>24</ele>
        <time>2019-07-24T16:42:25Z</time>
      </trkpt>
      <trkpt lat="48.98232" lon="2.08915">
        <ele>24</ele>
        <time>2019-07-24T16:42:30Z</time>
      </trkpt>
      <trkpt lat="48.98223" lon="2.08908">
        <ele>24</ele>
        <time>2019-07-24T16:42:36Z</time>
      </trkpt>
      <trkpt lat="48.98218" lon="2.08896">
        <ele>24</ele>
        <time>2019-07-24T16:42:45Z</time>
      </trkpt>
      <trkpt lat="48.98214" lon="2.08883">
        <ele>24</ele>
        <time>2019-07-24T16:42:50Z</time>
      </trkpt>
      <trkpt lat="48.98208" lon="2.08871">
        <ele>24</ele>
        <time>2019-07-24T16:42:57Z</time>
      </trkpt>
      <trkpt lat="48.98203" lon="2.08858">
        <ele>24</ele>
        <time>2019-07-24T16:43:03Z</time>
      </trkpt>
      <trkpt lat="48.98199" lon="2.08845">
        <ele>24</ele>
        <time>2019-07-24T16:43:10Z</time>
      </trkpt>
      <trkpt lat="48.98193" lon="2.08832">
        <ele>24</ele>
        <time>2019-07-24T16:43:16Z</time>
      </trkpt>
      <trkpt lat="48.98184" lon="2.08825">
        <ele>24</ele>
        <time>2019-07-24T16:43:23Z</time>
      </trkpt>
      <trkpt lat="48.98174" lon="2.08824">
        <ele>24</ele>
        <time>2019-07-24T16:43:29Z</time>
      </trkpt>
      <trkpt lat="48.98165" lon="2.08824">
        <ele>24</ele>
        <time>2019-07-24T16:43:35Z</time>
      </trkpt>
      <trkpt lat="48.98155" lon="2.08824">
        <ele>24</ele>
        <time>2019-07-24T16:43:41Z</time>
      </trkpt>
      <trkpt lat="48.98145" lon="2.08825">
        <ele>24</ele>
        <time>2019-07-24T16:43:49Z</time>
      </trkpt>
      <trkpt lat="48.98136" lon="2.0883">
        <ele>24</ele>
        <time>2019-07-24T16:43:56Z</time>
      </trkpt>
      <trkpt lat="48.98126" lon="2.08835">
        <ele>23</ele>
        <time>2019-07-24T16:44:03Z</time>
      </trkpt>
      <trkpt lat="48.98116" lon="2.08838">
        <ele>23</ele>
        <time>2019-07-24T16:44:09Z</time>
      </trkpt>
      <trkpt lat="48.98107" lon="2.08839">
        <ele>23</ele>
        <time>2019-07-24T16:44:16Z</time>
      </trkpt>
      <trkpt lat="48.98097" lon="2.08837">
        <ele>23</ele>
        <time>2019-07-24T16:44:24Z</time>
      </trkpt>
      <trkpt lat="48.98087" lon="2.08835">
        <ele>23</ele>
        <time>2019-07-24T16:44:31Z</time>
      </trkpt>
      <trkpt lat="48.98077" lon="2.08833">
        <ele>23</ele>
        <time>2019-07-24T16:44:37Z</time>
      </trkpt>
      <trkpt lat="48.98067" lon="2.08835">
        <ele>23</ele>
        <time>2019-07-24T16:44:43Z</time>
      </trkpt>
      <trkpt lat="48.98058" lon="2.08833">
        <ele>24</ele>
        <time>2019-07-24T16:44:50Z</time>
      </trkpt>
      <trkpt lat="48.98049" lon="2.08829">
        <ele>25</ele>
        <time>2019-07-24T16:44:56Z</time>
      </trkpt>
      <trkpt lat="48.9804" lon="2.0882">
        <ele>25</ele>
        <time>2019-07-24T16:45:01Z</time>
      </trkpt>
      <trkpt lat="48.98031" lon="2.08813">
        <ele>25</ele>
        <time>2019-07-24T16:45:07Z</time>
      </trkpt>
      <trkpt lat="48.98022" lon="2.08804">
        <ele>25</ele>
        <time>2019-07-24T16:45:15Z</time>
      </trkpt>
      <trkpt lat="48.98016" lon="2.08793">
        <ele>25</ele>
        <time>2019-07-24T16:45:20Z</time>
      </trkpt>
      <trkpt lat="48.98011" lon="2.08783">
        <ele>25</ele>
        <time>2019-07-24T16:45:27Z</time>
      </trkpt>
      <trkpt lat="48.98002" lon="2.08774">
        <ele>25</ele>
        <time>2019-07-24T16:45:34Z</time>
      </trkpt>
      <trkpt lat="48.97994" lon="2.08761">
        <ele>24</ele>
        <time>2019-07-24T16:45:40Z</time>
      </trkpt>
      <trkpt lat="48.97986" lon="2.08753">
        <ele>24</ele>
        <time>2019-07-24T16:45:45Z</time>
      </trkpt>
      <trkpt lat="48.97978" lon="2.08747">
        <ele>24</ele>
        <time>2019-07-24T16:45:51Z</time>
      </trkpt>
      <trkpt lat="48.97968" lon="2.08742">
        <ele>23</ele>
        <time>2019-07-24T16:45:57Z</time>
      </trkpt>
      <trkpt lat="48.97958" lon="2.08739">
        <ele>23</ele>
        <time>2019-07-24T16:46:03Z</time>
      </trkpt>
      <trkpt lat="48.97949" lon="2.08743">
        <ele>23</ele>
        <time>2019-07-24T16:46:17Z</time>
      </trkpt>
      <trkpt lat="48.97944" lon="2.08757">
        <ele>25</ele>
        <time>2019-07-24T16:46:27Z</time>
      </trkpt>
      <trkpt lat="48.97935" lon="2.08762">
        <ele>25</ele>
        <time>2019-07-24T16:46:35Z</time>
      </trkpt>
      <trkpt lat="48.97927" lon="2.08769">
        <ele>25</ele>
        <time>2019-07-24T16:46:43Z</time>
      </trkpt>
      <trkpt lat="48.97922" lon="2.08784">
        <ele>25</ele>
        <time>2019-07-24T16:46:49Z</time>
      </trkpt>
      <trkpt lat="48.97914" lon="2.08792">
        <ele>25</ele>
        <time>2019-07-24T16:46:57Z</time>
      </trkpt>
      <trkpt lat="48.97908" lon="2.08804">
        <ele>26</ele>
        <time>2019-07-24T16:47:07Z</time>
      </trkpt>
      <trkpt lat="48.97903" lon="2.08816">
        <ele>26</ele>
        <time>2019-07-24T16:47:13Z</time>
      </trkpt>
      <trkpt lat="48.97898" lon="2.08827">
        <ele>26</ele>
        <time>2019-07-24T16:47:17Z</time>
      </trkpt>
      <trkpt lat="48.97893" lon="2.08839">
        <ele>26</ele>
        <time>2019-07-24T16:47:22Z</time>
      </trkpt>
      <trkpt lat="48.9789" lon="2.08852">
        <ele>26</ele>
        <time>2019-07-24T16:47:28Z</time>
      </trkpt>
      <trkpt lat="48.9789" lon="2.08866">
        <ele>26</ele>
        <time>2019-07-24T16:47:35Z</time>
      </trkpt>
      <trkpt lat="48.97889" lon="2.08882">
        <ele>26</ele>
        <time>2019-07-24T16:47:42Z</time>
      </trkpt>
      <trkpt lat="48.97885" lon="2.08896">
        <ele>26</ele>
        <time>2019-07-24T16:47:50Z</time>
      </trkpt>
      <trkpt lat="48.97884" lon="2.08912">
        <ele>26</ele>
        <time>2019-07-24T16:47:58Z</time>
      </trkpt>
      <trkpt lat="48.97881" lon="2.08926">
        <ele>25</ele>
        <time>2019-07-24T16:48:04Z</time>
      </trkpt>
      <trkpt lat="48.97883" lon="2.08941">
        <ele>25</ele>
        <time>2019-07-24T16:48:12Z</time>
      </trkpt>
      <trkpt lat="48.97886" lon="2.08956">
        <ele>25</ele>
        <time>2019-07-24T16:48:17Z</time>
      </trkpt>
      <trkpt lat="48.97889" lon="2.08971">
        <ele>25</ele>
        <time>2019-07-24T16:48:23Z</time>
      </trkpt>
      <trkpt lat="48.97892" lon="2.08986">
        <ele>25</ele>
        <time>2019-07-24T16:48:28Z</time>
      </trkpt>
      <trkpt lat="48.97894" lon="2.09">
        <ele>25</ele>
        <time>2019-07-24T16:48:34Z</time>
      </trkpt>
      <trkpt lat="48.97898" lon="2.09014">
        <ele>25</ele>
        <time>2019-07-24T16:48:42Z</time>
      </trkpt>
      <trkpt lat="48.97902" lon="2.09028">
        <ele>25</ele>
        <time>2019-07-24T16:48:50Z</time>
      </trkpt>
      <trkpt lat="48.97903" lon="2.09043">
        <ele>25</ele>
        <time>2019-07-24T16:48:58Z</time>
      </trkpt>
      <trkpt lat="48.97901" lon="2.09058">
        <ele>25</ele>
        <time>2019-07-24T16:49:06Z</time>
      </trkpt>
      <trkpt lat="48.979" lon="2.09072">
        <ele>25</ele>
        <time>2019-07-24T16:49:12Z</time>
      </trkpt>
      <trkpt lat="48.97899" lon="2.09089">
        <ele>26</ele>
        <time>2019-07-24T16:49:20Z</time>
      </trkpt>
      <trkpt lat="48.97897" lon="2.09104">
        <ele>26</ele>
        <time>2019-07-24T16:49:26Z</time>
      </trkpt>
      <trkpt lat="48.97896" lon="2.09118">
        <ele>26</ele>
        <time>2019-07-24T16:49:32Z</time>
      </trkpt>
      <trkpt lat="48.97893" lon="2.09131">
        <ele>26</ele>
        <time>2019-07-24T16:49:38Z</time>
      </trkpt>
      <trkpt lat="48.97891" lon="2.09145">
        <ele>26</ele>
        <time>2019-07-24T16:49:45Z</time>
      </trkpt>
      <trkpt lat="48.97887" lon="2.09158">
        <ele>26</ele>
        <time>2019-07-24T16:49:51Z</time>
      </trkpt>
      <trkpt lat="48.97882" lon="2.09169">
        <ele>27</ele>
        <time>2019-07-24T16:49:58Z</time>
      </trkpt>
      <trkpt lat="48.97877" lon="2.09181">
        <ele>27</ele>
        <time>2019-07-24T16:50:06Z</time>
      </trkpt>
      <trkpt lat="48.9787" lon="2.09192">
        <ele>27</ele>
        <time>2019-07-24T16:50:13Z</time>
      </trkpt>
      <trkpt lat="48.97862" lon="2.092">
        <ele>27</ele>
        <time>2019-07-24T16:50:19Z</time>
      </trkpt>
      <trkpt lat="48.97855" lon="2.0921">
        <ele>27</ele>
        <time>2019-07-24T16:50:29Z</time>
      </trkpt>
      <trkpt lat="48.97849" lon="2.09222">
        <ele>27</ele>
        <time>2019-07-24T16:50:35Z</time>
      </trkpt>
      <trkpt lat="48.97846" lon="2.09236">
        <ele>27</ele>
        <time>2019-07-24T16:50:42Z</time>
      </trkpt>
      <trkpt lat="48.97842" lon="2.09251">
        <ele>27</ele>
        <time>2019-07-24T16:50:48Z</time>
      </trkpt>
      <trkpt lat="48.97841" lon="2.09266">
        <ele>27</ele>
        <time>2019-07-24T16:50:57Z</time>
      </trkpt>
      <trkpt lat="48.97842" lon="2.0928">
        <ele>27</ele>
        <time>2019-07-24T16:51:05Z</time>
      </trkpt>
      <trkpt lat="48.97839" lon="2.09295">
        <ele>28</ele>
        <time>2019-07-24T16:51:10Z</time>
      </trkpt>
      <trkpt lat="48.97839" lon="2.0931">
        <ele>28</ele>
        <time>2019-07-24T16:51:20Z</time>
      </trkpt>
      <trkpt lat="48.97839" lon="2.09324">
        <ele>29</ele>
        <time>2019-07-24T16:51:26Z</time>
      </trkpt>
      <trkpt lat="48.97836" lon="2.09339">
        <ele>29</ele>
        <time>2019-07-24T16:51:32Z</time>
      </trkpt>
      <trkpt lat="48.97834" lon="2.09353">
        <ele>29</ele>
        <time>2019-07-24T16:51:38Z</time>
      </trkpt>
      <trkpt lat="48.97829" lon="2.09368">
        <ele>27</ele>
        <time>2019-07-24T16:51:45Z</time>
      </trkpt>
      <trkpt lat="48.97829" lon="2.09382">
        <ele>27</ele>
        <time>2019-07-24T16:51:52Z</time>
      </trkpt>
      <trkpt lat="48.97828" lon="2.09397">
        <ele>27</ele>
        <time>2019-07-24T16:51:58Z</time>
      </trkpt>
      <trkpt lat="48.97829" lon="2.09412">
        <ele>27</ele>
        <time>2019-07-24T16:52:05Z</time>
      </trkpt>
      <trkpt lat="48.97828" lon="2.09428">
        <ele>27</ele>
        <time>2019-07-24T16:52:13Z</time>
      </trkpt>
      <trkpt lat="48.97827" lon="2.09443">
        <ele>26</ele>
        <time>2019-07-24T16:52:18Z</time>
      </trkpt>
      <trkpt lat="48.97826" lon="2.09458">
        <ele>25</ele>
        <time>2019-07-24T16:52:25Z</time>
      </trkpt>
      <trkpt lat="48.97826" lon="2.09472">
        <ele>25</ele>
        <time>2019-07-24T16:52:31Z</time>
      </trkpt>
      <trkpt lat="48.97826" lon="2.09486">
        <ele>25</ele>
        <time>2019-07-24T16:52:38Z</time>
      </trkpt>
      <trkpt lat="48.97826" lon="2.09501">
        <ele>25</ele>
        <time>2019-07-24T16:52:46Z</time>
      </trkpt>
      <trkpt lat="48.97823" lon="2.09515">
        <ele>25</ele>
        <time>2019-07-24T16:52:53Z</time>
      </trkpt>
      <trkpt lat="48.9782" lon="2.09528">
        <ele>25</ele>
        <time>2019-07-24T16:53:00Z</time>
      </trkpt>
      <trkpt lat="48.97816" lon="2.09541">
        <ele>25</ele>
        <time>2019-07-24T16:53:06Z</time>
      </trkpt>
      <trkpt lat="48.97809" lon="2.09551">
        <ele>24</ele>
        <time>2019-07-24T16:53:16Z</time>
      </trkpt>
      <trkpt lat="48.97806" lon="2.09568">
        <ele>24</ele>
        <time>2019-07-24T16:53:26Z</time>
      </trkpt>
      <trkpt lat="48.97804" lon="2.09584">
        <ele>25</ele>
        <time>2019-07-24T16:53:31Z</time>
      </trkpt>
      <trkpt lat="48.97802" lon="2.09598">
        <ele>25</ele>
        <time>2019-07-24T16:53:36Z</time>
      </trkpt>
      <trkpt lat="48.97799" lon="2.09614">
        <ele>24</ele>
        <time>2019-07-24T16:53:43Z</time>
      </trkpt>
      <trkpt lat="48.97798" lon="2.09629">
        <ele>24</ele>
        <time>2019-07-24T16:53:49Z</time>
      </trkpt>
      <trkpt lat="48.97796" lon="2.09643">
        <ele>24</ele>
        <time>2019-07-24T16:53:55Z</time>
      </trkpt>
      <trkpt lat="48.97793" lon="2.09658">
        <ele>24</ele>
        <time>2019-07-24T16:54:01Z</time>
      </trkpt>
      <trkpt lat="48.9779" lon="2.09673">
        <ele>24</ele>
        <time>2019-07-24T16:54:08Z</time>
      </trkpt>
      <trkpt lat="48.97786" lon="2.09686">
        <ele>24</ele>
        <time>2019-07-24T16:54:16Z</time>
      </trkpt>
      <trkpt lat="48.97784" lon="2.097">
        <ele>24</ele>
        <time>2019-07-24T16:54:24Z</time>
      </trkpt>
      <trkpt lat="48.97781" lon="2.09714">
        <ele>24</ele>
        <time>2019-07-24T16:54:30Z</time>
      </trkpt>
      <trkpt lat="48.9778" lon="2.0973">
        <ele>24</ele>
        <time>2019-07-24T16:54:37Z</time>
      </trkpt>
      <trkpt lat="48.97778" lon="2.09743">
        <ele>23</ele>
        <time>2019-07-24T16:54:44Z</time>
      </trkpt>
      <trkpt lat="48.97773" lon="2.09757">
        <ele>23</ele>
        <time>2019-07-24T16:54:51Z</time>
      </trkpt>
      <trkpt lat="48.97769" lon="2.09771">
        <ele>23</ele>
        <time>2019-07-24T16:54:58Z</time>
      </trkpt>
      <trkpt lat="48.97766" lon="2.09787">
        <ele>23</ele>
        <time>2019-07-24T16:55:06Z</time>
      </trkpt>
      <trkpt lat="48.97765" lon="2.09801">
        <ele>24</ele>
        <time>2019-07-24T16:55:12Z</time>
      </trkpt>
      <trkpt lat="48.97762" lon="2.09815">
        <ele>24</ele>
        <time>2019-07-24T16:55:18Z</time>
      </trkpt>
      <trkpt lat="48.97761" lon="2.09829">
        <ele>23</ele>
        <time>2019-07-24T16:55:25Z</time>
      </trkpt>
      <trkpt lat="48.97759" lon="2.09843">
        <ele>24</ele>
        <time>2019-07-24T16:55:31Z</time>
      </trkpt>
      <trkpt lat="48.9776" lon="2.09857">
        <ele>24</ele>
        <time>2019-07-24T16:55:39Z</time>
      </trkpt>
      <trkpt lat="48.97757" lon="2.0987">
        <ele>24</ele>
        <time>2019-07-24T16:55:45Z</time>
      </trkpt>
      <trkpt lat="48.97757" lon="2.09884">
        <ele>24</ele>
        <time>2019-07-24T16:55:53Z</time>
      </trkpt>
      <trkpt lat="48.97755" lon="2.09898">
        <ele>24</ele>
        <time>2019-07-24T16:55:59Z</time>
      </trkpt>
      <trkpt lat="48.97752" lon="2.09912">
        <ele>24</ele>
        <time>2019-07-24T16:56:06Z</time>
      </trkpt>
      <trkpt lat="48.9775" lon="2.09927">
        <ele>26</ele>
        <time>2019-07-24T16:56:13Z</time>
      </trkpt>
      <trkpt lat="48.97748" lon="2.09945">
        <ele>27</ele>
        <time>2019-07-24T16:56:21Z</time>
      </trkpt>
      <trkpt lat="48.97749" lon="2.09961">
        <ele>28</ele>
        <time>2019-07-24T16:56:26Z</time>
      </trkpt>
      <trkpt lat="48.97748" lon="2.09975">
        <ele>29</ele>
        <time>2019-07-24T16:56:32Z</time>
      </trkpt>
      <trkpt lat="48.97744" lon="2.09988">
        <ele>29</ele>
        <time>2019-07-24T16:57:10Z</time>
      </trkpt>
      <trkpt lat="48.97742" lon="2.10002">
        <ele>30</ele>
        <time>2019-07-24T16:57:40Z</time>
      </trkpt>
      <trkpt lat="48.97741" lon="2.1002">
        <ele>31</ele>
        <time>2019-07-24T16:57:48Z</time>
      </trkpt>
      <trkpt lat="48.9774" lon="2.10034">
        <ele>31</ele>
        <time>2019-07-24T16:57:55Z</time>
      </trkpt>
      <trkpt lat="48.97744" lon="2.10047">
        <ele>31</ele>
        <time>2019-07-24T16:58:02Z</time>
      </trkpt>
      <trkpt lat="48.97746" lon="2.10062">
        <ele>31</ele>
        <time>2019-07-24T16:58:07Z</time>
      </trkpt>
      <trkpt lat="48.97742" lon="2.10075">
        <ele>31</ele>
        <time>2019-07-24T16:58:13Z</time>
      </trkpt>
      <trkpt lat="48.97739" lon="2.10091">
        <ele>31</ele>
        <time>2019-07-24T16:58:21Z</time>
      </trkpt>
      <trkpt lat="48.97737" lon="2.10106">
        <ele>32</ele>
        <time>2019-07-24T16:58:29Z</time>
      </trkpt>
      <trkpt lat="48.97735" lon="2.10119">
        <ele>32</ele>
        <time>2019-07-24T16:58:35Z</time>
      </trkpt>
      <trkpt lat="48.97733" lon="2.10134">
        <ele>31</ele>
        <time>2019-07-24T16:58:41Z</time>
      </trkpt>
      <trkpt lat="48.97729" lon="2.10149">
        <ele>31</ele>
        <time>2019-07-24T16:58:50Z</time>
      </trkpt>
      <trkpt lat="48.97726" lon="2.10163">
        <ele>31</ele>
        <time>2019-07-24T16:58:57Z</time>
      </trkpt>
      <trkpt lat="48.97722" lon="2.10175">
        <ele>31</ele>
        <time>2019-07-24T16:59:03Z</time>
      </trkpt>
      <trkpt lat="48.97719" lon="2.10191">
        <ele>31</ele>
        <time>2019-07-24T16:59:09Z</time>
      </trkpt>
      <trkpt lat="48.97715" lon="2.10205">
        <ele>31</ele>
        <time>2019-07-24T16:59:17Z</time>
      </trkpt>
      <trkpt lat="48.97712" lon="2.10219">
        <ele>31</ele>
        <time>2019-07-24T16:59:23Z</time>
      </trkpt>
      <trkpt lat="48.97709" lon="2.10234">
        <ele>31</ele>
        <time>2019-07-24T16:59:28Z</time>
      </trkpt>
      <trkpt lat="48.97707" lon="2.10249">
        <ele>31</ele>
        <time>2019-07-24T16:59:34Z</time>
      </trkpt>
      <trkpt lat="48.97705" lon="2.10264">
        <ele>31</ele>
        <time>2019-07-24T16:59:43Z</time>
      </trkpt>
      <trkpt lat="48.97703" lon="2.1028">
        <ele>31</ele>
        <time>2019-07-24T16:59:50Z</time>
      </trkpt>
      <trkpt lat="48.97701" lon="2.10295">
        <ele>32</ele>
        <time>2019-07-24T16:59:58Z</time>
      </trkpt>
      <trkpt lat="48.97699" lon="2.10309">
        <ele>32</ele>
        <time>2019-07-24T17:00:04Z</time>
      </trkpt>
      <trkpt lat="48.97697" lon="2.10324">
        <ele>32</ele>
        <time>2019-07-24T17:00:12Z</time>
      </trkpt>
      <trkpt lat="48.97693" lon="2.10338">
        <ele>32</ele>
        <time>2019-07-24T17:00:20Z</time>
      </trkpt>
      <trkpt lat="48.97689" lon="2.10349">
        <ele>33</ele>
        <time>2019-07-24T17:00:26Z</time>
      </trkpt>
      <trkpt lat="48.97683" lon="2.10362">
        <ele>33</ele>
        <time>2019-07-24T17:00:35Z</time>
      </trkpt>
      <trkpt lat="48.9768" lon="2.10376">
        <ele>32</ele>
        <time>2019-07-24T17:00:43Z</time>
      </trkpt>
      <trkpt lat="48.97679" lon="2.1039">
        <ele>32</ele>
        <time>2019-07-24T17:00:48Z</time>
      </trkpt>
      <trkpt lat="48.97678" lon="2.10404">
        <ele>33</ele>
        <time>2019-07-24T17:00:53Z</time>
      </trkpt>
      <trkpt lat="48.97673" lon="2.10419">
        <ele>33</ele>
        <time>2019-07-24T17:01:00Z</time>
      </trkpt>
      <trkpt lat="48.97673" lon="2.10434">
        <ele>33</ele>
        <time>2019-07-24T17:01:06Z</time>
      </trkpt>
      <trkpt lat="48.97673" lon="2.10448">
        <ele>32</ele>
        <time>2019-07-24T17:01:13Z</time>
      </trkpt>
      <trkpt lat="48.9767" lon="2.10463">
        <ele>32</ele>
        <time>2019-07-24T17:01:19Z</time>
      </trkpt>
      <trkpt lat="48.97667" lon="2.10476">
        <ele>32</ele>
        <time>2019-07-24T17:01:26Z</time>
      </trkpt>
      <trkpt lat="48.97665" lon="2.1049">
        <ele>33</ele>
        <time>2019-07-24T17:01:32Z</time>
      </trkpt>
      <trkpt lat="48.97661" lon="2.10503">
        <ele>33</ele>
        <time>2019-07-24T17:01:40Z</time>
      </trkpt>
      <trkpt lat="48.97659" lon="2.10518">
        <ele>33</ele>
        <time>2019-07-24T17:01:46Z</time>
      </trkpt>
      <trkpt lat="48.97657" lon="2.10533">
        <ele>33</ele>
        <time>2019-07-24T17:01:53Z</time>
      </trkpt>
      <trkpt lat="48.97656" lon="2.10549">
        <ele>33</ele>
        <time>2019-07-24T17:02:01Z</time>
      </trkpt>
      <trkpt lat="48.97655" lon="2.10562">
        <ele>32</ele>
        <time>2019-07-24T17:02:07Z</time>
      </trkpt>
      <trkpt lat="48.97654" lon="2.10577">
        <ele>32</ele>
        <time>2019-07-24T17:02:12Z</time>
      </trkpt>
      <trkpt lat="48.97652" lon="2.10591">
        <ele>31</ele>
        <time>2019-07-24T17:02:17Z</time>
      </trkpt>
      <trkpt lat="48.97649" lon="2.10605">
        <ele>31</ele>
        <time>2019-07-24T17:02:25Z</time>
      </trkpt>
      <trkpt lat="48.97644" lon="2.10617">
        <ele>31</ele>
        <time>2019-07-24T17:02:29Z</time>
      </trkpt>
      <trkpt lat="48.97644" lon="2.10631">
        <ele>31</ele>
        <time>2019-07-24T17:02:38Z</time>
      </trkpt>
      <trkpt lat="48.97642" lon="2.10648">
        <ele>31</ele>
        <time>2019-07-24T17:02:44Z</time>
      </trkpt>
      <trkpt lat="48.9764" lon="2.10663">
        <ele>31</ele>
        <time>2019-07-24T17:02:50Z</time>
      </trkpt>
      <trkpt lat="48.97639" lon="2.10678">
        <ele>30</ele>
        <time>2019-07-24T17:02:56Z</time>
      </trkpt>
      <trkpt lat="48.97638" lon="2.10693">
        <ele>29</ele>
        <time>2019-07-24T17:03:04Z</time>
      </trkpt>
      <trkpt lat="48.97635" lon="2.10707">
        <ele>29</ele>
        <time>2019-07-24T17:03:10Z</time>
      </trkpt>
      <trkpt lat="48.97632" lon="2.10721">
        <ele>29</ele>
        <time>2019-07-24T17:03:17Z</time>
      </trkpt>
      <trkpt lat="48.97626" lon="2.10732">
        <ele>29</ele>
        <time>2019-07-24T17:03:23Z</time>
      </trkpt>
      <trkpt lat="48.97623" lon="2.10745">
        <ele>29</ele>
        <time>2019-07-24T17:03:31Z</time>
      </trkpt>
      <trkpt lat="48.97621" lon="2.10759">
        <ele>29</ele>
        <time>2019-07-24T17:03:38Z</time>
      </trkpt>
      <trkpt lat="48.9762" lon="2.10775">
        <ele>29</ele>
        <time>2019-07-24T17:03:44Z</time>
      </trkpt>
      <trkpt lat="48.97617" lon="2.10791">
        <ele>29</ele>
        <time>2019-07-24T17:03:51Z</time>
      </trkpt>
      <trkpt lat="48.97614" lon="2.10806">
        <ele>29</ele>
        <time>2019-07-24T17:03:57Z</time>
      </trkpt>
      <trkpt lat="48.97611" lon="2.10818">
        <ele>29</ele>
        <time>2019-07-24T17:04:10Z</time>
      </trkpt>
      <trkpt lat="48.976" lon="2.10818">
        <ele>29</ele>
        <time>2019-07-24T17:04:39Z</time>
      </trkpt>
      <trkpt lat="48.97591" lon="2.10815">
        <ele>29</ele>
        <time>2019-07-24T17:04:46Z</time>
      </trkpt>
      <trkpt lat="48.97582" lon="2.1081">
        <ele>31</ele>
        <time>2019-07-24T17:04:54Z</time>
      </trkpt>
      <trkpt lat="48.97572" lon="2.1081">
        <ele>31</ele>
        <time>2019-07-24T17:05:01Z</time>
      </trkpt>
      <trkpt lat="48.97561" lon="2.10809">
        <ele>31</ele>
        <time>2019-07-24T17:05:07Z</time>
      </trkpt>
      <trkpt lat="48.97552" lon="2.10804">
        <ele>31</ele>
        <time>2019-07-24T17:05:14Z</time>
      </trkpt>
      <trkpt lat="48.97543" lon="2.10802">
        <ele>31</ele>
        <time>2019-07-24T17:05:21Z</time>
      </trkpt>
      <trkpt lat="48.97533" lon="2.10798">
        <ele>32</ele>
        <time>2019-07-24T17:05:27Z</time>
      </trkpt>
      <trkpt lat="48.97524" lon="2.10792">
        <ele>32</ele>
        <time>2019-07-24T17:05:35Z</time>
      </trkpt>
      <trkpt lat="48.97514" lon="2.1079">
        <ele>32</ele>
        <time>2019-07-24T17:05:44Z</time>
      </trkpt>
      <trkpt lat="48.97504" lon="2.10786">
        <ele>32</ele>
        <time>2019-07-24T17:05:49Z</time>
      </trkpt>
      <trkpt lat="48.97494" lon="2.10786">
        <ele>34</ele>
        <time>2019-07-24T17:05:55Z</time>
      </trkpt>
      <trkpt lat="48.97485" lon="2.10783">
        <ele>34</ele>
        <time>2019-07-24T17:06:01Z</time>
      </trkpt>
      <trkpt lat="48.97476" lon="2.10779">
        <ele>34</ele>
        <time>2019-07-24T17:06:08Z</time>
      </trkpt>
      <trkpt lat="48.97467" lon="2.10776">
        <ele>34</ele>
        <time>2019-07-24T17:06:16Z</time>
      </trkpt>
      <trkpt lat="48.97458" lon="2.1077">
        <ele>34</ele>
        <time>2019-07-24T17:06:22Z</time>
      </trkpt>
      <trkpt lat="48.97449" lon="2.10766">
        <ele>34</ele>
        <time>2019-07-24T17:06:29Z</time>
      </trkpt>
      <trkpt lat="48.97439" lon="2.10769">
        <ele>34</ele>
        <time>2019-07-24T17:06:34Z</time>
      </trkpt>
      <trkpt lat="48.97433" lon="2.1078">
        <ele>34</ele>
        <time>2019-07-24T17:06:40Z</time>
      </trkpt>
      <trkpt lat="48.9743" lon="2.10793">
        <ele>34</ele>
        <time>2019-07-24T17:06:46Z</time>
      </trkpt>
      <trkpt lat="48.97426" lon="2.10807">
        <ele>34</ele>
        <time>2019-07-24T17:06:52Z</time>
      </trkpt>
      <trkpt lat="48.97424" lon="2.10823">
        <ele>33</ele>
        <time>2019-07-24T17:06:59Z</time>
      </trkpt>
      <trkpt lat="48.9742" lon="2.10837">
        <ele>33</ele>
        <time>2019-07-24T17:07:05Z</time>
      </trkpt>
      <trkpt lat="48.97415" lon="2.10849">
        <ele>33</ele>
        <time>2019-07-24T17:07:11Z</time>
      </trkpt>
      <trkpt lat="48.97414" lon="2.10865">
        <ele>33</ele>
        <time>2019-07-24T17:07:19Z</time>
      </trkpt>
      <trkpt lat="48.9741" lon="2.10879">
        <ele>33</ele>
        <time>2019-07-24T17:07:25Z</time>
      </trkpt>
      <trkpt lat="48.97405" lon="2.10892">
        <ele>32</ele>
        <time>2019-07-24T17:07:33Z</time>
      </trkpt>
      <trkpt lat="48.97402" lon="2.10905">
        <ele>32</ele>
        <time>2019-07-24T17:07:53Z</time>
      </trkpt>
      <trkpt lat="48.97398" lon="2.10918">
        <ele>32</ele>
        <time>2019-07-24T17:08:01Z</time>
      </trkpt>
      <trkpt lat="48.97395" lon="2.10931">
        <ele>31</ele>
        <time>2019-07-24T17:08:10Z</time>
      </trkpt>
      <trkpt lat="48.97392" lon="2.10945">
        <ele>31</ele>
        <time>2019-07-24T17:08:18Z</time>
      </trkpt>
      <trkpt lat="48.97393" lon="2.10959">
        <ele>31</ele>
        <time>2019-07-24T17:08:26Z</time>
      </trkpt>
      <trkpt lat="48.9739" lon="2.10973">
        <ele>31</ele>
        <time>2019-07-24T17:08:32Z</time>
      </trkpt>
      <trkpt lat="48.97386" lon="2.10986">
        <ele>31</ele>
        <time>2019-07-24T17:08:37Z</time>
      </trkpt>
      <trkpt lat="48.97382" lon="2.11002">
        <ele>30</ele>
        <time>2019-07-24T17:08:45Z</time>
      </trkpt>
      <trkpt lat="48.97378" lon="2.11015">
        <ele>30</ele>
        <time>2019-07-24T17:08:54Z</time>
      </trkpt>
      <trkpt lat="48.97376" lon="2.1103">
        <ele>30</ele>
        <time>2019-07-24T17:09:02Z</time>
      </trkpt>
      <trkpt lat="48.97372" lon="2.11044">
        <ele>30</ele>
        <time>2019-07-24T17:09:09Z</time>
      </trkpt>
      <trkpt lat="48.97367" lon="2.11056">
        <ele>30</ele>
        <time>2019-07-24T17:09:18Z</time>
      </trkpt>
      <trkpt lat="48.97364" lon="2.1107">
        <ele>30</ele>
        <time>2019-07-24T17:09:25Z</time>
      </trkpt>
      <trkpt lat="48.97361" lon="2.11085">
        <ele>30</ele>
        <time>2019-07-24T17:09:30Z</time>
      </trkpt>
      <trkpt lat="48.97359" lon="2.11099">
        <ele>30</ele>
        <time>2019-07-24T17:09:36Z</time>
      </trkpt>
      <trkpt lat="48.97357" lon="2.11112">
        <ele>30</ele>
        <time>2019-07-24T17:09:42Z</time>
      </trkpt>
      <trkpt lat="48.97353" lon="2.11125">
        <ele>30</ele>
        <time>2019-07-24T17:09:50Z</time>
      </trkpt>
      <trkpt lat="48.97354" lon="2.1114">
        <ele>30</ele>
        <time>2019-07-24T17:09:57Z</time>
      </trkpt>
      <trkpt lat="48.97351" lon="2.11153">
        <ele>29</ele>
        <time>2019-07-24T17:10:05Z</time>
      </trkpt>
      <trkpt lat="48.97346" lon="2.11166">
        <ele>29</ele>
        <time>2019-07-24T17:10:13Z</time>
      </trkpt>
      <trkpt lat="48.97343" lon="2.11179">
        <ele>30</ele>
        <time>2019-07-24T17:10:18Z</time>
      </trkpt>
      <trkpt lat="48.9734" lon="2.11192">
        <ele>30</ele>
        <time>2019-07-24T17:10:25Z</time>
      </trkpt>
      <trkpt lat="48.97337" lon="2.11206">
        <ele>30</ele>
        <time>2019-07-24T17:10:32Z</time>
      </trkpt>
      <trkpt lat="48.97334" lon="2.11219">
        <ele>30</ele>
        <time>2019-07-24T17:10:37Z</time>
      </trkpt>
      <trkpt lat="48.97333" lon="2.11233">
        <ele>30</ele>
        <time>2019-07-24T17:10:43Z</time>
      </trkpt>
      <trkpt lat="48.9733" lon="2.11248">
        <ele>30</ele>
        <time>2019-07-24T17:10:51Z</time>
      </trkpt>
      <trkpt lat="48.97327" lon="2.11262">
        <ele>30</ele>
        <time>2019-07-24T17:10:58Z</time>
      </trkpt>
      <trkpt lat="48.97323" lon="2.11275">
        <ele>30</ele>
        <time>2019-07-24T17:11:04Z</time>
      </trkpt>
      <trkpt lat="48.97321" lon="2.1129">
        <ele>30</ele>
        <time>2019-07-24T17:11:11Z</time>
      </trkpt>
      <trkpt lat="48.97318" lon="2.11305">
        <ele>30</ele>
        <time>2019-07-24T17:11:18Z</time>
      </trkpt>
      <trkpt lat="48.97314" lon="2.11319">
        <ele>29</ele>
        <time>2019-07-24T17:11:26Z</time>
      </trkpt>
      <trkpt lat="48.9731" lon="2.11331">
        <ele>29</ele>
        <time>2019-07-24T17:11:33Z</time>
      </trkpt>
      <trkpt lat="48.97308" lon="2.11346">
        <ele>29</ele>
        <time>2019-07-24T17:11:40Z</time>
      </trkpt>
      <trkpt lat="48.97306" lon="2.11361">
        <ele>29</ele>
        <time>2019-07-24T17:11:48Z</time>
      </trkpt>
      <trkpt lat="48.97303" lon="2.11374">
        <ele>29</ele>
        <time>2019-07-24T17:11:55Z</time>
      </trkpt>
      <trkpt lat="48.97301" lon="2.11389">
        <ele>29</ele>
        <time>2019-07-24T17:12:02Z</time>
      </trkpt>
      <trkpt lat="48.97296" lon="2.11402">
        <ele>29</ele>
        <time>2019-07-24T17:12:09Z</time>
      </trkpt>
      <trkpt lat="48.97294" lon="2.11417">
        <ele>30</ele>
        <time>2019-07-24T17:12:16Z</time>
      </trkpt>
      <trkpt lat="48.97291" lon="2.11431">
        <ele>30</ele>
        <time>2019-07-24T17:12:21Z</time>
      </trkpt>
      <trkpt lat="48.97287" lon="2.11446">
        <ele>30</ele>
        <time>2019-07-24T17:12:28Z</time>
      </trkpt>
      <trkpt lat="48.97285" lon="2.11461">
        <ele>30</ele>
        <time>2019-07-24T17:12:35Z</time>
      </trkpt>
      <trkpt lat="48.97284" lon="2.11475">
        <ele>30</ele>
        <time>2019-07-24T17:12:43Z</time>
      </trkpt>
      <trkpt lat="48.97281" lon="2.11488">
        <ele>30</ele>
        <time>2019-07-24T17:12:49Z</time>
      </trkpt>
      <trkpt lat="48.97276" lon="2.11501">
        <ele>31</ele>
        <time>2019-07-24T17:12:57Z</time>
      </trkpt>
      <trkpt lat="48.97272" lon="2.11514">
        <ele>31</ele>
        <time>2019-07-24T17:13:03Z</time>
      </trkpt>
      <trkpt lat="48.97271" lon="2.11528">
        <ele>31</ele>
        <time>2019-07-24T17:13:09Z</time>
      </trkpt>
      <trkpt lat="48.9727" lon="2.11542">
        <ele>31</ele>
        <time>2019-07-24T17:13:15Z</time>
      </trkpt>
      <trkpt lat="48.97263" lon="2.11531">
        <ele>31</ele>
        <time>2019-07-24T17:14:36Z</time>
      </trkpt>
      <trkpt lat="48.97254" lon="2.11524">
        <ele>31</ele>
        <time>2019-07-24T17:14:44Z</time>
      </trkpt>
      <trkpt lat="48.97245" lon="2.11519">
        <ele>32</ele>
        <time>2019-07-24T17:14:50Z</time>
      </trkpt>
      <trkpt lat="48.97236" lon="2.11512">
        <ele>32</ele>
        <time>2019-07-24T17:14:58Z</time>
      </trkpt>
      <trkpt lat="48.97226" lon="2.11507">
        <ele>32</ele>
        <time>2019-07-24T17:15:04Z</time>
      </trkpt>
      <trkpt lat="48.97216" lon="2.11504">
        <ele>32</ele>
        <time>2019-07-24T17:15:10Z</time>
      </trkpt>
      <trkpt lat="48.97208" lon="2.11496">
        <ele>32</ele>
        <time>2019-07-24T17:15:20Z</time>
      </trkpt>
      <trkpt lat="48.97202" lon="2.11486">
        <ele>32</ele>
        <time>2019-07-24T17:15:30Z</time>
      </trkpt>
      <trkpt lat="48.97198" lon="2.11471">
        <ele>33</ele>
        <time>2019-07-24T17:15:42Z</time>
      </trkpt>
      <trkpt lat="48.97195" lon="2.11459">
        <ele>33</ele>
        <time>2019-07-24T17:15:52Z</time>
      </trkpt>
      <trkpt lat="48.97192" lon="2.11445">
        <ele>33</ele>
        <time>2019-07-24T17:16:08Z</time>
      </trkpt>
      <trkpt lat="48.97187" lon="2.11434">
        <ele>33</ele>
        <time>2019-07-24T17:16:15Z</time>
      </trkpt>
      <trkpt lat="48.9718" lon="2.11423">
        <ele>33</ele>
        <time>2019-07-24T17:16:22Z</time>
      </trkpt>
      <trkpt lat="48.97172" lon="2.11415">
        <ele>34</ele>
        <time>2019-07-24T17:16:29Z</time>
      </trkpt>
      <trkpt lat="48.97167" lon="2.11399">
        <ele>33</ele>
        <time>2019-07-24T17:16:38Z</time>
      </trkpt>
      <trkpt lat="48.97161" lon="2.11388">
        <ele>35</ele>
        <time>2019-07-24T17:16:45Z</time>
      </trkpt>
      <trkpt lat="48.97155" lon="2.11376">
        <ele>35</ele>
        <time>2019-07-24T17:16:51Z</time>
      </trkpt>
      <trkpt lat="48.97151" lon="2.11364">
        <ele>35</ele>
        <time>2019-07-24T17:16:58Z</time>
      </trkpt>
      <trkpt lat="48.97149" lon="2.11349">
        <ele>35</ele>
        <time>2019-07-24T17:17:08Z</time>
      </trkpt>
      <trkpt lat="48.97145" lon="2.11337">
        <ele>35</ele>
        <time>2019-07-24T17:17:14Z</time>
      </trkpt>
      <trkpt lat="48.97137" lon="2.11326">
        <ele>36</ele>
        <time>2019-07-24T17:17:21Z</time>
      </trkpt>
      <trkpt lat="48.97134" lon="2.11313">
        <ele>36</ele>
        <time>2019-07-24T17:17:27Z</time>
      </trkpt>
      <trkpt lat="48.97135" lon="2.11298">
        <ele>36</ele>
        <time>2019-07-24T17:17:32Z</time>
      </trkpt>
      <trkpt lat="48.97133" lon="2.11285">
        <ele>36</ele>
        <time>2019-07-24T17:17:38Z</time>
      </trkpt>
      <trkpt lat="48.97134" lon="2.11271">
        <ele>36</ele>
        <time>2019-07-24T17:17:47Z</time>
      </trkpt>
      <trkpt lat="48.97137" lon="2.11256">
        <ele>36</ele>
        <time>2019-07-24T17:17:56Z</time>
      </trkpt>
      <trkpt lat="48.97143" lon="2.11246">
        <ele>36</ele>
        <time>2019-07-24T17:18:03Z</time>
      </trkpt>
      <trkpt lat="48.97146" lon="2.11232">
        <ele>36</ele>
        <time>2019-07-24T17:18:10Z</time>
      </trkpt>
      <trkpt lat="48.97146" lon="2.11216">
        <ele>36</ele>
        <time>2019-07-24T17:18:16Z</time>
      </trkpt>
      <trkpt lat="48.97147" lon="2.11201">
        <ele>36</ele>
        <time>2019-07-24T17:18:23Z</time>
      </trkpt>
      <trkpt lat="48.97148" lon="2.11186">
        <ele>36</ele>
        <time>2019-07-24T17:18:29Z</time>
      </trkpt>
      <trkpt lat="48.9715" lon="2.11171">
        <ele>36</ele>
        <time>2019-07-24T17:18:38Z</time>
      </trkpt>
      <trkpt lat="48.97151" lon="2.11155">
        <ele>37</ele>
        <time>2019-07-24T17:18:47Z</time>
      </trkpt>
      <trkpt lat="48.9715" lon="2.11141">
        <ele>37</ele>
        <time>2019-07-24T17:18:53Z</time>
      </trkpt>
      <trkpt lat="48.97151" lon="2.11125">
        <ele>37</ele>
        <time>2019-07-24T17:18:58Z</time>
      </trkpt>
      <trkpt lat="48.97149" lon="2.11111">
        <ele>37</ele>
        <time>2019-07-24T17:19:05Z</time>
      </trkpt>
      <trkpt lat="48.97147" lon="2.11097">
        <ele>37</ele>
        <time>2019-07-24T17:19:12Z</time>
      </trkpt>
      <trkpt lat="48.97144" lon="2.11083">
        <ele>37</ele>
        <time>2019-07-24T17:19:19Z</time>
      </trkpt>
      <trkpt lat="48.97142" lon="2.1107">
        <ele>38</ele>
        <time>2019-07-24T17:19:25Z</time>
      </trkpt>
      <trkpt lat="48.9714" lon="2.11055">
        <ele>38</ele>
        <time>2019-07-24T17:19:32Z</time>
      </trkpt>
      <trkpt lat="48.97137" lon="2.11042">
        <ele>38</ele>
        <time>2019-07-24T17:19:37Z</time>
      </trkpt>
      <trkpt lat="48.97135" lon="2.11027">
        <ele>38</ele>
        <time>2019-07-24T17:19:45Z</time>
      </trkpt>
      <trkpt lat="48.97131" lon="2.11012">
        <ele>38</ele>
        <time>2019-07-24T17:19:52Z</time>
      </trkpt>
      <trkpt lat="48.97129" lon="2.10997">
        <ele>39</ele>
        <time>2019-07-24T17:19:58Z</time>
      </trkpt>
      <trkpt lat="48.97126" lon="2.10981">
        <ele>39</ele>
        <time>2019-07-24T17:20:05Z</time>
      </trkpt>
      <trkpt lat="48.97124" lon="2.10967">
        <ele>39</ele>
        <time>2019-07-24T17:20:13Z</time>
      </trkpt>
      <trkpt lat="48.97126" lon="2.10952">
        <ele>39</ele>
        <time>2019-07-24T17:20:20Z</time>
      </trkpt>
      <trkpt lat="48.97124" lon="2.10938">
        <ele>39</ele>
        <time>2019-07-24T17:20:28Z</time>
      </trkpt>
      <trkpt lat="48.97124" lon="2.10924">
        <ele>40</ele>
        <time>2019-07-24T17:20:34Z</time>
      </trkpt>
      <trkpt lat="48.97123" lon="2.10907">
        <ele>41</ele>
        <time>2019-07-24T17:20:42Z</time>
      </trkpt>
      <trkpt lat="48.97118" lon="2.10895">
        <ele>41</ele>
        <time>2019-07-24T17:20:48Z</time>
      </trkpt>
      <trkpt lat="48.97117" lon="2.10877">
        <ele>41</ele>
        <time>2019-07-24T17:20:56Z</time>
      </trkpt>
      <trkpt lat="48.97114" lon="2.10861">
        <ele>41</ele>
        <time>2019-07-24T17:21:02Z</time>
      </trkpt>
      <trkpt lat="48.9711" lon="2.10847">
        <ele>41</ele>
        <time>2019-07-24T17:21:11Z</time>
      </trkpt>
      <trkpt lat="48.97109" lon="2.10832">
        <ele>42</ele>
        <time>2019-07-24T17:21:17Z</time>
      </trkpt>
      <trkpt lat="48.97106" lon="2.10817">
        <ele>42</ele>
        <time>2019-07-24T17:21:24Z</time>
      </trkpt>
      <trkpt lat="48.97105" lon="2.10802">
        <ele>42</ele>
        <time>2019-07-24T17:21:31Z</time>
      </trkpt>
      <trkpt lat="48.97104" lon="2.10788">
        <ele>42</ele>
        <time>2019-07-24T17:21:37Z</time>
      </trkpt>
      <trkpt lat="48.97101" lon="2.10774">
        <ele>42</ele>
        <time>2019-07-24T17:21:42Z</time>
      </trkpt>
      <trkpt lat="48.97105" lon="2.1076">
        <ele>42</ele>
        <time>2019-07-24T17:22:02Z</time>
      </trkpt>
      <trkpt lat="48.97109" lon="2.10747">
        <ele>42</ele>
        <time>2019-07-24T17:22:10Z</time>
      </trkpt>
      <trkpt lat="48.97118" lon="2.1074">
        <ele>41</ele>
        <time>2019-07-24T17:23:09Z</time>
      </trkpt>
      <trkpt lat="48.97125" lon="2.10731">
        <ele>41</ele>
        <time>2019-07-24T17:23:15Z</time>
      </trkpt>
      <trkpt lat="48.97133" lon="2.10722">
        <ele>41</ele>
        <time>2019-07-24T17:23:22Z</time>
      </trkpt>
      <trkpt lat="48.97139" lon="2.10713">
        <ele>41</ele>
        <time>2019-07-24T17:23:27Z</time>
      </trkpt>
      <trkpt lat="48.97147" lon="2.10704">
        <ele>41</ele>
        <time>2019-07-24T17:23:33Z</time>
      </trkpt>
      <trkpt lat="48.97155" lon="2.10695">
        <ele>41</ele>
        <time>2019-07-24T17:23:40Z</time>
      </trkpt>
      <trkpt lat="48.97161" lon="2.10681">
        <ele>41</ele>
        <time>2019-07-24T17:23:47Z</time>
      </trkpt>
      <trkpt lat="48.97168" lon="2.10672">
        <ele>40</ele>
        <time>2019-07-24T17:23:55Z</time>
      </trkpt>
      <trkpt lat="48.97178" lon="2.10663">
        <ele>39</ele>
        <time>2019-07-24T17:24:01Z</time>
      </trkpt>
      <trkpt lat="48.97187" lon="2.10657">
        <ele>39</ele>
        <time>2019-07-24T17:24:08Z</time>
      </trkpt>
      <trkpt lat="48.97194" lon="2.10646">
        <ele>39</ele>
        <time>2019-07-24T17:24:14Z</time>
      </trkpt>
      <trkpt lat="48.97201" lon="2.10635">
        <ele>39</ele>
        <time>2019-07-24T17:24:21Z</time>
      </trkpt>
      <trkpt lat="48.97208" lon="2.10623">
        <ele>39</ele>
        <time>2019-07-24T17:24:28Z</time>
      </trkpt>
      <trkpt lat="48.97216" lon="2.10615">
        <ele>39</ele>
        <time>2019-07-24T17:24:34Z</time>
      </trkpt>
      <trkpt lat="48.97225" lon="2.1061">
        <ele>39</ele>
        <time>2019-07-24T17:24:40Z</time>
      </trkpt>
      <trkpt lat="48.97232" lon="2.10602">
        <ele>38</ele>
        <time>2019-07-24T17:24:46Z</time>
      </trkpt>
      <trkpt lat="48.9724" lon="2.10596">
        <ele>38</ele>
        <time>2019-07-24T17:24:54Z</time>
      </trkpt>
      <trkpt lat="48.97249" lon="2.10587">
        <ele>38</ele>
        <time>2019-07-24T17:25:01Z</time>
      </trkpt>
      <trkpt lat="48.97255" lon="2.10576">
        <ele>38</ele>
        <time>2019-07-24T17:25:07Z</time>
      </trkpt>
      <trkpt lat="48.9726" lon="2.10563">
        <ele>38</ele>
        <time>2019-07-24T17:25:14Z</time>
      </trkpt>
      <trkpt lat="48.97266" lon="2.10552">
        <ele>39</ele>
        <time>2019-07-24T17:25:22Z</time>
      </trkpt>
      <trkpt lat="48.97272" lon="2.10539">
        <ele>39</ele>
        <time>2019-07-24T17:25:27Z</time>
      </trkpt>
      <trkpt lat="48.97279" lon="2.10529">
        <ele>39</ele>
        <time>2019-07-24T17:25:33Z</time>
      </trkpt>
      <trkpt lat="48.97287" lon="2.10522">
        <ele>39</ele>
        <time>2019-07-24T17:25:40Z</time>
      </trkpt>
      <trkpt lat="48.97293" lon="2.10512">
        <ele>39</ele>
        <time>2019-07-24T17:25:45Z</time>
      </trkpt>
      <trkpt lat="48.97301" lon="2.10503">
        <ele>39</ele>
        <time>2019-07-24T17:25:52Z</time>
      </trkpt>
      <trkpt lat="48.97307" lon="2.1049">
        <ele>39</ele>
        <time>2019-07-24T17:25:57Z</time>
      </trkpt>
      <trkpt lat="48.97316" lon="2.10483">
        <ele>39</ele>
        <time>2019-07-24T17:26:01Z</time>
      </trkpt>
      <trkpt lat="48.97323" lon="2.10474">
        <ele>39</ele>
        <time>2019-07-24T17:26:08Z</time>
      </trkpt>
      <trkpt lat="48.97331" lon="2.10462">
        <ele>39</ele>
        <time>2019-07-24T17:26:16Z</time>
      </trkpt>
      <trkpt lat="48.97337" lon="2.1045">
        <ele>38</ele>
        <time>2019-07-24T17:26:23Z</time>
      </trkpt>
      <trkpt lat="48.97345" lon="2.10441">
        <ele>38</ele>
        <time>2019-07-24T17:26:29Z</time>
      </trkpt>
      <trkpt lat="48.97352" lon="2.10431">
        <ele>38</ele>
        <time>2019-07-24T17:26:36Z</time>
      </trkpt>
      <trkpt lat="48.97358" lon="2.10417">
        <ele>38</ele>
        <time>2019-07-24T17:26:44Z</time>
      </trkpt>
      <trkpt lat="48.97364" lon="2.10405">
        <ele>38</ele>
        <time>2019-07-24T17:26:50Z</time>
      </trkpt>
      <trkpt lat="48.9737" lon="2.10393">
        <ele>37</ele>
        <time>2019-07-24T17:26:58Z</time>
      </trkpt>
      <trkpt lat="48.97377" lon="2.1038">
        <ele>37</ele>
        <time>2019-07-24T17:27:04Z</time>
      </trkpt>
      <trkpt lat="48.9738" lon="2.10367">
        <ele>37</ele>
        <time>2019-07-24T17:27:08Z</time>
      </trkpt>
      <trkpt lat="48.97384" lon="2.10353">
        <ele>37</ele>
        <time>2019-07-24T17:27:13Z</time>
      </trkpt>
      <trkpt lat="48.97393" lon="2.10344">
        <ele>37</ele>
        <time>2019-07-24T17:27:21Z</time>
      </trkpt>
      <trkpt lat="48.974" lon="2.10335">
        <ele>37</ele>
        <time>2019-07-24T17:27:26Z</time>
      </trkpt>
      <trkpt lat="48.97408" lon="2.10323">
        <ele>37</ele>
        <time>2019-07-24T17:27:34Z</time>
      </trkpt>
      <trkpt lat="48.97413" lon="2.10312">
        <ele>37</ele>
        <time>2019-07-24T17:27:39Z</time>
      </trkpt>
      <trkpt lat="48.9742" lon="2.10302">
        <ele>36</ele>
        <time>2019-07-24T17:27:47Z</time>
      </trkpt>
      <trkpt lat="48.97427" lon="2.10292">
        <ele>36</ele>
        <time>2019-07-24T17:27:54Z</time>
      </trkpt>
      <trkpt lat="48.97437" lon="2.10286">
        <ele>36</ele>
        <time>2019-07-24T17:28:00Z</time>
      </trkpt>
      <trkpt lat="48.97445" lon="2.10282">
        <ele>36</ele>
        <time>2019-07-24T17:28:07Z</time>
      </trkpt>
      <trkpt lat="48.97453" lon="2.10271">
        <ele>35</ele>
        <time>2019-07-24T17:28:14Z</time>
      </trkpt>
      <trkpt lat="48.97459" lon="2.1026">
        <ele>35</ele>
        <time>2019-07-24T17:28:20Z</time>
      </trkpt>
      <trkpt lat="48.97466" lon="2.10251">
        <ele>35</ele>
        <time>2019-07-24T17:28:26Z</time>
      </trkpt>
      <trkpt lat="48.97471" lon="2.1024">
        <ele>35</ele>
        <time>2019-07-24T17:28:32Z</time>
      </trkpt>
      <trkpt lat="48.97474" lon="2.10225">
        <ele>35</ele>
        <time>2019-07-24T17:28:39Z</time>
      </trkpt>
      <trkpt lat="48.97479" lon="2.10213">
        <ele>35</ele>
        <time>2019-07-24T17:28:44Z</time>
      </trkpt>
      <trkpt lat="48.97487" lon="2.10205">
        <ele>35</ele>
        <time>2019-07-24T17:28:49Z</time>
      </trkpt>
      <trkpt lat="48.97494" lon="2.10195">
        <ele>34</ele>
        <time>2019-07-24T17:28:55Z</time>
      </trkpt>
      <trkpt lat="48.97502" lon="2.10186">
        <ele>33</ele>
        <time>2019-07-24T17:29:02Z</time>
      </trkpt>
      <trkpt lat="48.97511" lon="2.10178">
        <ele>33</ele>
        <time>2019-07-24T17:29:11Z</time>
      </trkpt>
      <trkpt lat="48.97518" lon="2.10169">
        <ele>33</ele>
        <time>2019-07-24T17:29:18Z</time>
      </trkpt>
      <trkpt lat="48.97524" lon="2.10158">
        <ele>34</ele>
        <time>2019-07-24T17:29:25Z</time>
      </trkpt>
      <trkpt lat="48.9753" lon="2.10148">
        <ele>34</ele>
        <time>2019-07-24T17:29:31Z</time>
      </trkpt>
      <trkpt lat="48.97538" lon="2.10141">
        <ele>34</ele>
        <time>2019-07-24T17:29:35Z</time>
      </trkpt>
      <trkpt lat="48.97545" lon="2.1013">
        <ele>34</ele>
        <time>2019-07-24T17:29:40Z</time>
      </trkpt>
      <trkpt lat="48.97553" lon="2.10121">
        <ele>34</ele>
        <time>2019-07-24T17:29:49Z</time>
      </trkpt>
      <trkpt lat="48.97558" lon="2.10109">
        <ele>35</ele>
        <time>2019-07-24T17:29:55Z</time>
      </trkpt>
      <trkpt lat="48.97563" lon="2.10097">
        <ele>35</ele>
        <time>2019-07-24T17:30:00Z</time>
      </trkpt>
      <trkpt lat="48.97572" lon="2.1009">
        <ele>35</ele>
        <time>2019-07-24T17:30:08Z</time>
      </trkpt>
      <trkpt lat="48.97574" lon="2.10075">
        <ele>35</ele>
        <time>2019-07-24T17:30:15Z</time>
      </trkpt>
      <trkpt lat="48.97575" lon="2.1006">
        <ele>35</ele>
        <time>2019-07-24T17:30:22Z</time>
      </trkpt>
      <trkpt lat="48.97576" lon="2.10044">
        <ele>34</ele>
        <time>2019-07-24T17:30:27Z</time>
      </trkpt>
      <trkpt lat="48.9758" lon="2.1003">
        <ele>34</ele>
        <time>2019-07-24T17:30:33Z</time>
      </trkpt>
      <trkpt lat="48.9758" lon="2.10015">
        <ele>34</ele>
        <time>2019-07-24T17:30:38Z</time>
      </trkpt>
      <trkpt lat="48.97585" lon="2.10002">
        <ele>34</ele>
        <time>2019-07-24T17:30:43Z</time>
      </trkpt>
      <trkpt lat="48.9759" lon="2.0999">
        <ele>33</ele>
        <time>2019-07-24T17:30:52Z</time>
      </trkpt>
      <trkpt lat="48.97595" lon="2.09978">
        <ele>33</ele>
        <time>2019-07-24T17:31:00Z</time>
      </trkpt>
      <trkpt lat="48.97599" lon="2.09964">
        <ele>32</ele>
        <time>2019-07-24T17:31:08Z</time>
      </trkpt>
      <trkpt lat="48.97604" lon="2.09952">
        <ele>32</ele>
        <time>2019-07-24T17:31:16Z</time>
      </trkpt>
      <trkpt lat="48.97608" lon="2.09939">
        <ele>31</ele>
        <time>2019-07-24T17:31:22Z</time>
      </trkpt>
      <trkpt lat="48.97612" lon="2.09925">
        <ele>31</ele>
        <time>2019-07-24T17:31:27Z</time>
      </trkpt>
      <trkpt lat="48.97614" lon="2.09911">
        <ele>29</ele>
        <time>2019-07-24T17:31:35Z</time>
      </trkpt>
      <trkpt lat="48.97617" lon="2.09896">
        <ele>29</ele>
        <time>2019-07-24T17:31:42Z</time>
      </trkpt>
      <trkpt lat="48.97621" lon="2.09883">
        <ele>28</ele>
        <time>2019-07-24T17:31:48Z</time>
      </trkpt>
      <trkpt lat="48.97622" lon="2.09869">
        <ele>28</ele>
        <time>2019-07-24T17:31:55Z</time>
      </trkpt>
      <trkpt lat="48.97622" lon="2.09854">
        <ele>28</ele>
        <time>2019-07-24T17:32:02Z</time>
      </trkpt>
      <trkpt lat="48.97626" lon="2.0984">
        <ele>27</ele>
        <time>2019-07-24T17:32:08Z</time>
      </trkpt>
      <trkpt lat="48.97629" lon="2.09827">
        <ele>27</ele>
        <time>2019-07-24T17:32:13Z</time>
      </trkpt>
      <trkpt lat="48.97633" lon="2.0981">
        <ele>27</ele>
        <time>2019-07-24T17:32:19Z</time>
      </trkpt>
      <trkpt lat="48.97635" lon="2.09796">
        <ele>27</ele>
        <time>2019-07-24T17:32:25Z</time>
      </trkpt>
      <trkpt lat="48.97637" lon="2.09781">
        <ele>27</ele>
        <time>2019-07-24T17:32:33Z</time>
      </trkpt>
      <trkpt lat="48.97637" lon="2.09767">
        <ele>26</ele>
        <time>2019-07-24T17:32:39Z</time>
      </trkpt>
      <trkpt lat="48.97642" lon="2.09754">
        <ele>26</ele>
        <time>2019-07-24T17:32:45Z</time>
      </trkpt>
      <trkpt lat="48.97647" lon="2.09738">
        <ele>26</ele>
        <time>2019-07-24T17:32:53Z</time>
      </trkpt>
      <trkpt lat="48.97648" lon="2.09724">
        <ele>26</ele>
        <time>2019-07-24T17:32:59Z</time>
      </trkpt>
      <trkpt lat="48.97648" lon="2.09709">
        <ele>26</ele>
        <time>2019-07-24T17:33:06Z</time>
      </trkpt>
      <trkpt lat="48.97645" lon="2.09693">
        <ele>26</ele>
        <time>2019-07-24T17:33:13Z</time>
      </trkpt>
      <trkpt lat="48.97637" lon="2.09679">
        <ele>26</ele>
        <time>2019-07-24T17:33:18Z</time>
      </trkpt>
      <trkpt lat="48.97632" lon="2.09667">
        <ele>27</ele>
        <time>2019-07-24T17:33:23Z</time>
      </trkpt>
      <trkpt lat="48.97624" lon="2.09656">
        <ele>25</ele>
        <time>2019-07-24T17:33:30Z</time>
      </trkpt>
      <trkpt lat="48.97617" lon="2.09647">
        <ele>26</ele>
        <time>2019-07-24T17:33:33Z</time>
      </trkpt>
      <trkpt lat="48.9761" lon="2.09636">
        <ele>26</ele>
        <time>2019-07-24T17:33:38Z</time>
      </trkpt>
      <trkpt lat="48.97604" lon="2.09624">
        <ele>25</ele>
        <time>2019-07-24T17:33:44Z</time>
      </trkpt>
      <trkpt lat="48.97596" lon="2.09614">
        <ele>25</ele>
        <time>2019-07-24T17:33:51Z</time>
      </trkpt>
      <trkpt lat="48.97588" lon="2.09604">
        <ele>24</ele>
        <time>2019-07-24T17:33:59Z</time>
      </trkpt>
      <trkpt lat="48.9758" lon="2.09595">
        <ele>25</ele>
        <time>2019-07-24T17:34:04Z</time>
      </trkpt>
      <trkpt lat="48.97574" lon="2.09584">
        <ele>25</ele>
        <time>2019-07-24T17:34:11Z</time>
      </trkpt>
      <trkpt lat="48.97569" lon="2.09572">
        <ele>25</ele>
        <time>2019-07-24T17:34:17Z</time>
      </trkpt>
      <trkpt lat="48.97563" lon="2.0956">
        <ele>25</ele>
        <time>2019-07-24T17:34:23Z</time>
      </trkpt>
      <trkpt lat="48.97557" lon="2.09548">
        <ele>26</ele>
        <time>2019-07-24T17:34:31Z</time>
      </trkpt>
      <trkpt lat="48.97554" lon="2.09535">
        <ele>26</ele>
        <time>2019-07-24T17:34:39Z</time>
      </trkpt>
      <trkpt lat="48.9755" lon="2.09522">
        <ele>26</ele>
        <time>2019-07-24T17:34:46Z</time>
      </trkpt>
      <trkpt lat="48.97547" lon="2.09509">
        <ele>26</ele>
        <time>2019-07-24T17:34:53Z</time>
      </trkpt>
      <trkpt lat="48.97542" lon="2.09495">
        <ele>26</ele>
        <time>2019-07-24T17:34:59Z</time>
      </trkpt>
      <trkpt lat="48.97537" lon="2.09481">
        <ele>26</ele>
        <time>2019-07-24T17:35:05Z</time>
      </trkpt>
      <trkpt lat="48.97534" lon="2.09467">
        <ele>26</ele>
        <time>2019-07-24T17:35:11Z</time>
      </trkpt>
      <trkpt lat="48.97531" lon="2.09453">
        <ele>26</ele>
        <time>2019-07-24T17:35:18Z</time>
      </trkpt>
      <trkpt lat="48.97527" lon="2.0944">
        <ele>26</ele>
        <time>2019-07-24T17:35:25Z</time>
      </trkpt>
      <trkpt lat="48.97524" lon="2.09427">
        <ele>26</ele>
        <time>2019-07-24T17:35:31Z</time>
      </trkpt>
      <trkpt lat="48.9752" lon="2.09412">
        <ele>25</ele>
        <time>2019-07-24T17:35:38Z</time>
      </trkpt>
      <trkpt lat="48.97517" lon="2.09398">
        <ele>25</ele>
        <time>2019-07-24T17:35:45Z</time>
      </trkpt>
      <trkpt lat="48.97515" lon="2.09383">
        <ele>25</ele>
        <time>2019-07-24T17:35:52Z</time>
      </trkpt>
      <trkpt lat="48.97516" lon="2.09368">
        <ele>25</ele>
        <time>2019-07-24T17:36:01Z</time>
      </trkpt>
      <trkpt lat="48.97513" lon="2.09354">
        <ele>25</ele>
        <time>2019-07-24T17:36:08Z</time>
      </trkpt>
      <trkpt lat="48.97509" lon="2.09339">
        <ele>25</ele>
        <time>2019-07-24T17:36:15Z</time>
      </trkpt>
      <trkpt lat="48.97506" lon="2.09325">
        <ele>25</ele>
        <time>2019-07-24T17:36:21Z</time>
      </trkpt>
      <trkpt lat="48.97503" lon="2.0931">
        <ele>25</ele>
        <time>2019-07-24T17:36:28Z</time>
      </trkpt>
      <trkpt lat="48.97499" lon="2.09296">
        <ele>28</ele>
        <time>2019-07-24T17:36:36Z</time>
      </trkpt>
      <trkpt lat="48.97494" lon="2.09281">
        <ele>28</ele>
        <time>2019-07-24T17:36:45Z</time>
      </trkpt>
      <trkpt lat="48.97489" lon="2.09268">
        <ele>27</ele>
        <time>2019-07-24T17:36:49Z</time>
      </trkpt>
      <trkpt lat="48.97484" lon="2.09255">
        <ele>27</ele>
        <time>2019-07-24T17:36:58Z</time>
      </trkpt>
      <trkpt lat="48.97485" lon="2.0924">
        <ele>27</ele>
        <time>2019-07-24T17:37:05Z</time>
      </trkpt>
      <trkpt lat="48.97487" lon="2.09227">
        <ele>27</ele>
        <time>2019-07-24T17:37:12Z</time>
      </trkpt>
      <trkpt lat="48.97493" lon="2.09217">
        <ele>27</ele>
        <time>2019-07-24T17:37:20Z</time>
      </trkpt>
      <trkpt lat="48.97494" lon="2.09202">
        <ele>27</ele>
        <time>2019-07-24T17:37:27Z</time>
      </trkpt>
      <trkpt lat="48.97497" lon="2.09189">
        <ele>27</ele>
        <time>2019-07-24T17:37:34Z</time>
      </trkpt>
      <trkpt lat="48.97495" lon="2.09174">
        <ele>26</ele>
        <time>2019-07-24T17:37:41Z</time>
      </trkpt>
      <trkpt lat="48.97494" lon="2.09159">
        <ele>26</ele>
        <time>2019-07-24T17:37:47Z</time>
      </trkpt>
      <trkpt lat="48.97496" lon="2.09146">
        <ele>27</ele>
        <time>2019-07-24T17:37:53Z</time>
      </trkpt>
      <trkpt lat="48.97496" lon="2.09132">
        <ele>28</ele>
        <time>2019-07-24T17:37:59Z</time>
      </trkpt>
      <trkpt lat="48.975" lon="2.09119">
        <ele>26</ele>
        <time>2019-07-24T17:38:08Z</time>
      </trkpt>
      <trkpt lat="48.97504" lon="2.09106">
        <ele>26</ele>
        <time>2019-07-24T17:38:14Z</time>
      </trkpt>
      <trkpt lat="48.97506" lon="2.09092">
        <ele>26</ele>
        <time>2019-07-24T17:38:19Z</time>
      </trkpt>
      <trkpt lat="48.9751" lon="2.09077">
        <ele>27</ele>
        <time>2019-07-24T17:38:27Z</time>
      </trkpt>
      <trkpt lat="48.97515" lon="2.09065">
        <ele>27</ele>
        <time>2019-07-24T17:38:34Z</time>
      </trkpt>
      <trkpt lat="48.97519" lon="2.09052">
        <ele>27</ele>
        <time>2019-07-24T17:38:41Z</time>
      </trkpt>
      <trkpt lat="48.97526" lon="2.09042">
        <ele>27</ele>
        <time>2019-07-24T17:38:48Z</time>
      </trkpt>
      <trkpt lat="48.97534" lon="2.09032">
        <ele>27</ele>
        <time>2019-07-24T17:38:55Z</time>
      </trkpt>
      <trkpt lat="48.97542" lon="2.09024">
        <ele>27</ele>
        <time>2019-07-24T17:39:03Z</time>
      </trkpt>
      <trkpt lat="48.9755" lon="2.09018">
        <ele>27</ele>
        <time>2019-07-24T17:39:10Z</time>
      </trkpt>
      <trkpt lat="48.97558" lon="2.09008">
        <ele>27</ele>
        <time>2019-07-24T17:39:17Z</time>
      </trkpt>
      <trkpt lat="48.97566" lon="2.08998">
        <ele>27</ele>
        <time>2019-07-24T17:39:24Z</time>
      </trkpt>
      <trkpt lat="48.97573" lon="2.08989">
        <ele>27</ele>
        <time>2019-07-24T17:39:31Z</time>
      </trkpt>
      <trkpt lat="48.97582" lon="2.08982">
        <ele>27</ele>
        <time>2019-07-24T17:39:37Z</time>
      </trkpt>
      <trkpt lat="48.97589" lon="2.08973">
        <ele>26</ele>
        <time>2019-07-24T17:39:45Z</time>
      </trkpt>
      <trkpt lat="48.97597" lon="2.08964">
        <ele>26</ele>
        <time>2019-07-24T17:39:53Z</time>
      </trkpt>
      <trkpt lat="48.97606" lon="2.08956">
        <ele>26</ele>
        <time>2019-07-24T17:39:58Z</time>
      </trkpt>
      <trkpt lat="48.97614" lon="2.08947">
        <ele>26</ele>
        <time>2019-07-24T17:40:04Z</time>
      </trkpt>
      <trkpt lat="48.97621" lon="2.08938">
        <ele>26</ele>
        <time>2019-07-24T17:40:11Z</time>
      </trkpt>
      <trkpt lat="48.97631" lon="2.08934">
        <ele>26</ele>
        <time>2019-07-24T17:40:23Z</time>
      </trkpt>
      <trkpt lat="48.9764" lon="2.08929">
        <ele>26</ele>
        <time>2019-07-24T17:40:29Z</time>
      </trkpt>
      <trkpt lat="48.97647" lon="2.08918">
        <ele>26</ele>
        <time>2019-07-24T17:40:37Z</time>
      </trkpt>
      <trkpt lat="48.97656" lon="2.08914">
        <ele>25</ele>
        <time>2019-07-24T17:40:48Z</time>
      </trkpt>
      <trkpt lat="48.97666" lon="2.0891">
        <ele>25</ele>
        <time>2019-07-24T17:40:56Z</time>
      </trkpt>
      <trkpt lat="48.97675" lon="2.08909">
        <ele>25</ele>
        <time>2019-07-24T17:41:02Z</time>
      </trkpt>
      <trkpt lat="48.97685" lon="2.0891">
        <ele>25</ele>
        <time>2019-07-24T17:41:07Z</time>
      </trkpt>
      <trkpt lat="48.97694" lon="2.08909">
        <ele>25</ele>
        <time>2019-07-24T17:41:14Z</time>
      </trkpt>
      <trkpt lat="48.97705" lon="2.08908">
        <ele>25</ele>
        <time>2019-07-24T17:41:22Z</time>
      </trkpt>
      <trkpt lat="48.97717" lon="2.08906">
        <ele>24</ele>
        <time>2019-07-24T17:41:27Z</time>
      </trkpt>
      <trkpt lat="48.97726" lon="2.08904">
        <ele>25</ele>
        <time>2019-07-24T17:41:33Z</time>
      </trkpt>
      <trkpt lat="48.97735" lon="2.08899">
        <ele>25</ele>
        <time>2019-07-24T17:41:40Z</time>
      </trkpt>
      <trkpt lat="48.97744" lon="2.089">
        <ele>25</ele>
        <time>2019-07-24T17:41:46Z</time>
      </trkpt>
      <trkpt lat="48.97754" lon="2.08899">
        <ele>25</ele>
        <time>2019-07-24T17:42:00Z</time>
      </trkpt>
      <trkpt lat="48.97763" lon="2.08896">
        <ele>25</ele>
        <time>2019-07-24T17:42:48Z</time>
      </trkpt>
      <trkpt lat="48.97772" lon="2.08898">
        <ele>25</ele>
        <time>2019-07-24T17:42:55Z</time>
      </trkpt>
      <trkpt lat="48.97781" lon="2.08897">
        <ele>25</ele>
        <time>2019-07-24T17:43:01Z</time>
      </trkpt>
      <trkpt lat="48.97791" lon="2.08898">
        <ele>25</ele>
        <time>2019-07-24T17:43:08Z</time>
      </trkpt>
      <trkpt lat="48.978" lon="2.08897">
        <ele>25</ele>
        <time>2019-07-24T17:43:14Z</time>
      </trkpt>
      <trkpt lat="48.9781" lon="2.08895">
        <ele>25</ele>
        <time>2019-07-24T17:43:20Z</time>
      </trkpt>
      <trkpt lat="48.97819" lon="2.08896">
        <ele>25</ele>
        <time>2019-07-24T17:43:26Z</time>
      </trkpt>
      <trkpt lat="48.9783" lon="2.08893">
        <ele>25</ele>
        <time>2019-07-24T17:43:34Z</time>
      </trkpt>
      <trkpt lat="48.97838" lon="2.08886">
        <ele>26</ele>
        <time>2019-07-24T17:43:42Z</time>
      </trkpt>
      <trkpt lat="48.97847" lon="2.08884">
        <ele>26</ele>
        <time>2019-07-24T17:43:49Z</time>
      </trkpt>
      <trkpt lat="48.97858" lon="2.08882">
        <ele>26</ele>
        <time>2019-07-24T17:43:56Z</time>
      </trkpt>
      <trkpt lat="48.97867" lon="2.08881">
        <ele>26</ele>
        <time>2019-07-24T17:44:04Z</time>
      </trkpt>
      <trkpt lat="48.97877" lon="2.08875">
        <ele>26</ele>
        <time>2019-07-24T17:44:11Z</time>
      </trkpt>
      <trkpt lat="48.97886" lon="2.08872">
        <ele>26</ele>
        <time>2019-07-24T17:44:18Z</time>
      </trkpt>
      <trkpt lat="48.97896" lon="2.08868">
        <ele>26</ele>
        <time>2019-07-24T17:44:26Z</time>
      </trkpt>
      <trkpt lat="48.97903" lon="2.08856">
        <ele>26</ele>
        <time>2019-07-24T17:44:34Z</time>
      </trkpt>
      <trkpt lat="48.97907" lon="2.08842">
        <ele>27</ele>
        <time>2019-07-24T17:44:43Z</time>
      </trkpt>
      <trkpt lat="48.97911" lon="2.0883">
        <ele>27</ele>
        <time>2019-07-24T17:44:49Z</time>
      </trkpt>
      <trkpt lat="48.97918" lon="2.08822">
        <ele>26</ele>
        <time>2019-07-24T17:44:55Z</time>
      </trkpt>
      <trkpt lat="48.97925" lon="2.08812">
        <ele>26</ele>
        <time>2019-07-24T17:45:01Z</time>
      </trkpt>
      <trkpt lat="48.97931" lon="2.08802">
        <ele>26</ele>
        <time>2019-07-24T17:45:09Z</time>
      </trkpt>
      <trkpt lat="48.97935" lon="2.08788">
        <ele>25</ele>
        <time>2019-07-24T17:45:17Z</time>
      </trkpt>
      <trkpt lat="48.97942" lon="2.08778">
        <ele>25</ele>
        <time>2019-07-24T17:45:23Z</time>
      </trkpt>
      <trkpt lat="48.97951" lon="2.0877">
        <ele>25</ele>
        <time>2019-07-24T17:45:32Z</time>
      </trkpt>
      <trkpt lat="48.97954" lon="2.08756">
        <ele>25</ele>
        <time>2019-07-24T17:45:40Z</time>
      </trkpt>
      <trkpt lat="48.97963" lon="2.08748">
        <ele>23</ele>
        <time>2019-07-24T17:45:59Z</time>
      </trkpt>
      <trkpt lat="48.97971" lon="2.0875">
        <ele>25</ele>
        <time>2019-07-24T17:46:04Z</time>
      </trkpt>
      <trkpt lat="48.97981" lon="2.08755">
        <ele>25</ele>
        <time>2019-07-24T17:46:12Z</time>
      </trkpt>
      <trkpt lat="48.97989" lon="2.08763">
        <ele>25</ele>
        <time>2019-07-24T17:46:22Z</time>
      </trkpt>
      <trkpt lat="48.97996" lon="2.0877">
        <ele>25</ele>
        <time>2019-07-24T17:46:31Z</time>
      </trkpt>
      <trkpt lat="48.98002" lon="2.08781">
        <ele>25</ele>
        <time>2019-07-24T17:46:39Z</time>
      </trkpt>
      <trkpt lat="48.9801" lon="2.08791">
        <ele>25</ele>
        <time>2019-07-24T17:46:47Z</time>
      </trkpt>
      <trkpt lat="48.98018" lon="2.08801">
        <ele>25</ele>
        <time>2019-07-24T17:46:53Z</time>
      </trkpt>
      <trkpt lat="48.98026" lon="2.0881">
        <ele>25</ele>
        <time>2019-07-24T17:46:59Z</time>
      </trkpt>
      <trkpt lat="48.98033" lon="2.08821">
        <ele>25</ele>
        <time>2019-07-24T17:47:06Z</time>
      </trkpt>
      <trkpt lat="48.98041" lon="2.08827">
        <ele>25</ele>
        <time>2019-07-24T17:47:12Z</time>
      </trkpt>
      <trkpt lat="48.9805" lon="2.08833">
        <ele>25</ele>
        <time>2019-07-24T17:47:18Z</time>
      </trkpt>
      <trkpt lat="48.98059" lon="2.08837">
        <ele>24</ele>
        <time>2019-07-24T17:47:26Z</time>
      </trkpt>
      <trkpt lat="48.9807" lon="2.08839">
        <ele>23</ele>
        <time>2019-07-24T17:47:33Z</time>
      </trkpt>
      <trkpt lat="48.9808" lon="2.08841">
        <ele>23</ele>
        <time>2019-07-24T17:47:39Z</time>
      </trkpt>
      <trkpt lat="48.9809" lon="2.08841">
        <ele>23</ele>
        <time>2019-07-24T17:47:46Z</time>
      </trkpt>
      <trkpt lat="48.98099" lon="2.08841">
        <ele>23</ele>
        <time>2019-07-24T17:47:54Z</time>
      </trkpt>
      <trkpt lat="48.98109" lon="2.08842">
        <ele>23</ele>
        <time>2019-07-24T17:48:01Z</time>
      </trkpt>
      <trkpt lat="48.98119" lon="2.08843">
        <ele>23</ele>
        <time>2019-07-24T17:48:09Z</time>
      </trkpt>
      <trkpt lat="48.9813" lon="2.08841">
        <ele>23</ele>
        <time>2019-07-24T17:48:16Z</time>
      </trkpt>
      <trkpt lat="48.9814" lon="2.08837">
        <ele>23</ele>
        <time>2019-07-24T17:48:23Z</time>
      </trkpt>
      <trkpt lat="48.98147" lon="2.08827">
        <ele>24</ele>
        <time>2019-07-24T17:48:30Z</time>
      </trkpt>
      <trkpt lat="48.98156" lon="2.08828">
        <ele>24</ele>
        <time>2019-07-24T17:48:40Z</time>
      </trkpt>
      <trkpt lat="48.98167" lon="2.08829">
        <ele>24</ele>
        <time>2019-07-24T17:48:49Z</time>
      </trkpt>
      <trkpt lat="48.98176" lon="2.0883">
        <ele>24</ele>
        <time>2019-07-24T17:48:55Z</time>
      </trkpt>
      <trkpt lat="48.98185" lon="2.08832">
        <ele>24</ele>
        <time>2019-07-24T17:49:02Z</time>
      </trkpt>
      <trkpt lat="48.98192" lon="2.08841">
        <ele>24</ele>
        <time>2019-07-24T17:49:10Z</time>
      </trkpt>
      <trkpt lat="48.98196" lon="2.08853">
        <ele>24</ele>
        <time>2019-07-24T17:49:18Z</time>
      </trkpt>
      <trkpt lat="48.98201" lon="2.08866">
        <ele>24</ele>
        <time>2019-07-24T17:49:27Z</time>
      </trkpt>
      <trkpt lat="48.98207" lon="2.08878">
        <ele>24</ele>
        <time>2019-07-24T17:49:35Z</time>
      </trkpt>
      <trkpt lat="48.98212" lon="2.0889">
        <ele>24</ele>
        <time>2019-07-24T17:49:41Z</time>
      </trkpt>
      <trkpt lat="48.98216" lon="2.08903">
        <ele>24</ele>
        <time>2019-07-24T17:49:47Z</time>
      </trkpt>
      <trkpt lat="48.98225" lon="2.08912">
        <ele>24</ele>
        <time>2019-07-24T17:49:54Z</time>
      </trkpt>
      <trkpt lat="48.98234" lon="2.08915">
        <ele>24</ele>
        <time>2019-07-24T17:49:59Z</time>
      </trkpt>
      <trkpt lat="48.98243" lon="2.08917">
        <ele>24</ele>
        <time>2019-07-24T17:50:04Z</time>
      </trkpt>
      <trkpt lat="48.98253" lon="2.08921">
        <ele>24</ele>
        <time>2019-07-24T17:50:11Z</time>
      </trkpt>
      <trkpt lat="48.98262" lon="2.08918">
        <ele>24</ele>
        <time>2019-07-24T17:50:18Z</time>
      </trkpt>
      <trkpt lat="48.98271" lon="2.0891">
        <ele>24</ele>
        <time>2019-07-24T17:50:24Z</time>
      </trkpt>
      <trkpt lat="48.98279" lon="2.089">
        <ele>25</ele>
        <time>2019-07-24T17:50:31Z</time>
      </trkpt>
      <trkpt lat="48.98286" lon="2.08888">
        <ele>25</ele>
        <time>2019-07-24T17:50:38Z</time>
      </trkpt>
      <trkpt lat="48.98292" lon="2.08876">
        <ele>25</ele>
        <time>2019-07-24T17:50:45Z</time>
      </trkpt>
      <trkpt lat="48.983" lon="2.08869">
        <ele>25</ele>
        <time>2019-07-24T17:50:53Z</time>
      </trkpt>
      <trkpt lat="48.98308" lon="2.0886">
        <ele>25</ele>
        <time>2019-07-24T17:51:02Z</time>
      </trkpt>
      <trkpt lat="48.98313" lon="2.08848">
        <ele>25</ele>
        <time>2019-07-24T17:51:06Z</time>
      </trkpt>
      <trkpt lat="48.98312" lon="2.08833">
        <ele>25</ele>
        <time>2019-07-24T17:51:11Z</time>
      </trkpt>
      <trkpt lat="48.98313" lon="2.08818">
        <ele>25</ele>
        <time>2019-07-24T17:51:19Z</time>
      </trkpt>
      <trkpt lat="48.98312" lon="2.08804">
        <ele>25</ele>
        <time>2019-07-24T17:51:26Z</time>
      </trkpt>
      <trkpt lat="48.9831" lon="2.0879">
        <ele>25</ele>
        <time>2019-07-24T17:51:34Z</time>
      </trkpt>
      <trkpt lat="48.98309" lon="2.08776">
        <ele>25</ele>
        <time>2019-07-24T17:51:39Z</time>
      </trkpt>
      <trkpt lat="48.98308" lon="2.08762">
        <ele>25</ele>
        <time>2019-07-24T17:51:45Z</time>
      </trkpt>
      <trkpt lat="48.98304" lon="2.08748">
        <ele>24</ele>
        <time>2019-07-24T17:51:53Z</time>
      </trkpt>
      <trkpt lat="48.98312" lon="2.0874">
        <ele>24</ele>
        <time>2019-07-24T17:52:04Z</time>
      </trkpt>
      <trkpt lat="48.98321" lon="2.08735">
        <ele>24</ele>
        <time>2019-07-24T17:52:12Z</time>
      </trkpt>
      <trkpt lat="48.9833" lon="2.08728">
        <ele>24</ele>
        <time>2019-07-24T17:52:19Z</time>
      </trkpt>
      <trkpt lat="48.98339" lon="2.08724">
        <ele>25</ele>
        <time>2019-07-24T17:52:27Z</time>
      </trkpt>
      <trkpt lat="48.98348" lon="2.08721">
        <ele>25</ele>
        <time>2019-07-24T17:52:33Z</time>
      </trkpt>
      <trkpt lat="48.98358" lon="2.08717">
        <ele>25</ele>
        <time>2019-07-24T17:52:38Z</time>
      </trkpt>
      <trkpt lat="48.98366" lon="2.0871">
        <ele>25</ele>
        <time>2019-07-24T17:52:47Z</time>
      </trkpt>
      <trkpt lat="48.98375" lon="2.08707">
        <ele>24</ele>
        <time>2019-07-24T17:52:53Z</time>
      </trkpt>
      <trkpt lat="48.98385" lon="2.08703">
        <ele>24</ele>
        <time>2019-07-24T17:52:58Z</time>
      </trkpt>
      <trkpt lat="48.98394" lon="2.08697">
        <ele>24</ele>
        <time>2019-07-24T17:53:05Z</time>
      </trkpt>
      <trkpt lat="48.98402" lon="2.08691">
        <ele>24</ele>
        <time>2019-07-24T17:53:12Z</time>
      </trkpt>
      <trkpt lat="48.98409" lon="2.08681">
        <ele>24</ele>
        <time>2019-07-24T17:53:17Z</time>
      </trkpt>
      <trkpt lat="48.98414" lon="2.08669">
        <ele>24</ele>
        <time>2019-07-24T17:53:25Z</time>
      </trkpt>
      <trkpt lat="48.98419" lon="2.08656">
        <ele>24</ele>
        <time>2019-07-24T17:53:32Z</time>
      </trkpt>
      <trkpt lat="48.98425" lon="2.08643">
        <ele>24</ele>
        <time>2019-07-24T17:53:40Z</time>
      </trkpt>
      <trkpt lat="48.98431" lon="2.0863">
        <ele>24</ele>
        <time>2019-07-24T17:53:46Z</time>
      </trkpt>
      <trkpt lat="48.98437" lon="2.08619">
        <ele>24</ele>
        <time>2019-07-24T17:53:54Z</time>
      </trkpt>
      <trkpt lat="48.98445" lon="2.0861">
        <ele>24</ele>
        <time>2019-07-24T17:54:02Z</time>
      </trkpt>
      <trkpt lat="48.98452" lon="2.08602">
        <ele>24</ele>
        <time>2019-07-24T17:54:09Z</time>
      </trkpt>
      <trkpt lat="48.98461" lon="2.08597">
        <ele>24</ele>
        <time>2019-07-24T17:54:14Z</time>
      </trkpt>
      <trkpt lat="48.98469" lon="2.08593">
        <ele>24</ele>
        <time>2019-07-24T17:54:19Z</time>
      </trkpt>
      <trkpt lat="48.98479" lon="2.08588">
        <ele>24</ele>
        <time>2019-07-24T17:54:26Z</time>
      </trkpt>
      <trkpt lat="48.98489" lon="2.08585">
        <ele>24</ele>
        <time>2019-07-24T17:54:33Z</time>
      </trkpt>
      <trkpt lat="48.98498" lon="2.08581">
        <ele>24</ele>
        <time>2019-07-24T17:54:39Z</time>
      </trkpt>
      <trkpt lat="48.98507" lon="2.08579">
        <ele>24</ele>
        <time>2019-07-24T17:54:47Z</time>
      </trkpt>
      <trkpt lat="48.98517" lon="2.08577">
        <ele>24</ele>
        <time>2019-07-24T17:54:54Z</time>
      </trkpt>
      <trkpt lat="48.98526" lon="2.08575">
        <ele>24</ele>
        <time>2019-07-24T17:55:01Z</time>
      </trkpt>
      <trkpt lat="48.98535" lon="2.08566">
        <ele>24</ele>
        <time>2019-07-24T17:55:08Z</time>
      </trkpt>
      <trkpt lat="48.98538" lon="2.08553">
        <ele>24</ele>
        <time>2019-07-24T17:55:15Z</time>
      </trkpt>
      <trkpt lat="48.98539" lon="2.08539">
        <ele>24</ele>
        <time>2019-07-24T17:55:31Z</time>
      </trkpt>
      <trkpt lat="48.98539" lon="2.08525">
        <ele>24</ele>
        <time>2019-07-24T17:55:39Z</time>
      </trkpt>
      <trkpt lat="48.98544" lon="2.08513">
        <ele>24</ele>
        <time>2019-07-24T17:55:47Z</time>
      </trkpt>
      <trkpt lat="48.9855" lon="2.085">
        <ele>24</ele>
        <time>2019-07-24T17:56:03Z</time>
      </trkpt>
      <trkpt lat="48.98559" lon="2.08495">
        <ele>24</ele>
        <time>2019-07-24T17:56:08Z</time>
      </trkpt>
      <trkpt lat="48.98567" lon="2.08489">
        <ele>24</ele>
        <time>2019-07-24T17:56:13Z</time>
      </trkpt>
      <trkpt lat="48.98576" lon="2.08483">
        <ele>24</ele>
        <time>2019-07-24T17:56:20Z</time>
      </trkpt>
      <trkpt lat="48.98585" lon="2.0848">
        <ele>23</ele>
        <time>2019-07-24T17:56:26Z</time>
      </trkpt>
      <trkpt lat="48.98595" lon="2.08479">
        <ele>23</ele>
        <time>2019-07-24T17:56:35Z</time>
      </trkpt>
      <trkpt lat="48.98604" lon="2.08476">
        <ele>24</ele>
        <time>2019-07-24T17:56:42Z</time>
      </trkpt>
      <trkpt lat="48.98614" lon="2.08474">
        <ele>24</ele>
        <time>2019-07-24T17:56:49Z</time>
      </trkpt>
      <trkpt lat="48.98624" lon="2.08466">
        <ele>24</ele>
        <time>2019-07-24T17:56:57Z</time>
      </trkpt>
      <trkpt lat="48.98634" lon="2.08461">
        <ele>24</ele>
        <time>2019-07-24T17:57:03Z</time>
      </trkpt>
      <trkpt lat="48.98642" lon="2.08456">
        <ele>24</ele>
        <time>2019-07-24T17:57:09Z</time>
      </trkpt>
      <trkpt lat="48.98651" lon="2.0845">
        <ele>24</ele>
        <time>2019-07-24T17:57:17Z</time>
      </trkpt>
      <trkpt lat="48.98659" lon="2.08442">
        <ele>24</ele>
        <time>2019-07-24T17:57:25Z</time>
      </trkpt>
      <trkpt lat="48.98668" lon="2.08438">
        <ele>24</ele>
        <time>2019-07-24T17:57:31Z</time>
      </trkpt>
      <trkpt lat="48.98677" lon="2.08433">
        <ele>24</ele>
        <time>2019-07-24T17:57:35Z</time>
      </trkpt>
      <trkpt lat="48.98683" lon="2.08422">
        <ele>24</ele>
        <time>2019-07-24T17:57:45Z</time>
      </trkpt>
      <trkpt lat="48.98692" lon="2.08415">
        <ele>24</ele>
        <time>2019-07-24T17:57:58Z</time>
      </trkpt>
      <trkpt lat="48.98701" lon="2.0841">
        <ele>24</ele>
        <time>2019-07-24T17:58:05Z</time>
      </trkpt>
      <trkpt lat="48.98711" lon="2.08407">
        <ele>24</ele>
        <time>2019-07-24T17:58:16Z</time>
      </trkpt>
      <trkpt lat="48.98719" lon="2.08402">
        <ele>23</ele>
        <time>2019-07-24T17:58:22Z</time>
      </trkpt>
      <trkpt lat="48.98729" lon="2.08396">
        <ele>23</ele>
        <time>2019-07-24T17:58:27Z</time>
      </trkpt>
      <trkpt lat="48.98738" lon="2.08388">
        <ele>23</ele>
        <time>2019-07-24T17:58:33Z</time>
      </trkpt>
      <trkpt lat="48.98747" lon="2.08384">
        <ele>23</ele>
        <time>2019-07-24T17:58:40Z</time>
      </trkpt>
      <trkpt lat="48.98757" lon="2.08377">
        <ele>22</ele>
        <time>2019-07-24T17:58:48Z</time>
      </trkpt>
      <trkpt lat="48.98766" lon="2.08369">
        <ele>23</ele>
        <time>2019-07-24T17:58:55Z</time>
      </trkpt>
      <trkpt lat="48.98775" lon="2.08364">
        <ele>23</ele>
        <time>2019-07-24T17:59:02Z</time>
      </trkpt>
      <trkpt lat="48.98783" lon="2.08353">
        <ele>23</ele>
        <time>2019-07-24T17:59:09Z</time>
      </trkpt>
      <trkpt lat="48.9879" lon="2.08343">
        <ele>23</ele>
        <time>2019-07-24T17:59:16Z</time>
      </trkpt>
      <trkpt lat="48.98799" lon="2.08336">
        <ele>23</ele>
        <time>2019-07-24T17:59:22Z</time>
      </trkpt>
      <trkpt lat="48.98808" lon="2.08332">
        <ele>23</ele>
        <time>2019-07-24T17:59:28Z</time>
      </trkpt>
      <trkpt lat="48.98817" lon="2.08327">
        <ele>23</ele>
        <time>2019-07-24T17:59:34Z</time>
      </trkpt>
      <trkpt lat="48.98826" lon="2.08323">
        <ele>23</ele>
        <time>2019-07-24T17:59:43Z</time>
      </trkpt>
      <trkpt lat="48.98835" lon="2.08319">
        <ele>21</ele>
        <time>2019-07-24T17:59:52Z</time>
      </trkpt>
      <trkpt lat="48.98844" lon="2.0831">
        <ele>21</ele>
        <time>2019-07-24T17:59:58Z</time>
      </trkpt>
      <trkpt lat="48.98852" lon="2.083">
        <ele>20</ele>
        <time>2019-07-24T18:00:04Z</time>
      </trkpt>
      <trkpt lat="48.98861" lon="2.08297">
        <ele>20</ele>
        <time>2019-07-24T18:00:14Z</time>
      </trkpt>
      <trkpt lat="48.98871" lon="2.08297">
        <ele>20</ele>
        <time>2019-07-24T18:00:19Z</time>
      </trkpt>
      <trkpt lat="48.98879" lon="2.0829">
        <ele>19</ele>
        <time>2019-07-24T18:00:28Z</time>
      </trkpt>
      <trkpt lat="48.98888" lon="2.08287">
        <ele>19</ele>
        <time>2019-07-24T18:00:33Z</time>
      </trkpt>
      <trkpt lat="48.98897" lon="2.0828">
        <ele>19</ele>
        <time>2019-07-24T18:00:39Z</time>
      </trkpt>
      <trkpt lat="48.98905" lon="2.08272">
        <ele>19</ele>
        <time>2019-07-24T18:00:46Z</time>
      </trkpt>
      <trkpt lat="48.98914" lon="2.08269">
        <ele>18</ele>
        <time>2019-07-24T18:00:53Z</time>
      </trkpt>
      <trkpt lat="48.98924" lon="2.08266">
        <ele>19</ele>
        <time>2019-07-24T18:01:00Z</time>
      </trkpt>
      <trkpt lat="48.98932" lon="2.08259">
        <ele>19</ele>
        <time>2019-07-24T18:01:08Z</time>
      </trkpt>
      <trkpt lat="48.9894" lon="2.08252">
        <ele>20</ele>
        <time>2019-07-24T18:01:14Z</time>
      </trkpt>
      <trkpt lat="48.9895" lon="2.08245">
        <ele>21</ele>
        <time>2019-07-24T18:01:22Z</time>
      </trkpt>
      <trkpt lat="48.98958" lon="2.0824">
        <ele>22</ele>
        <time>2019-07-24T18:01:30Z</time>
      </trkpt>
      <trkpt lat="48.98964" lon="2.08251">
        <ele>22</ele>
        <time>2019-07-24T18:01:37Z</time>
      </trkpt>
      <trkpt lat="48.98966" lon="2.08265">
        <ele>22</ele>
        <time>2019-07-24T18:01:43Z</time>
      </trkpt>
      <trkpt lat="48.98967" lon="2.08278">
        <ele>22</ele>
        <time>2019-07-24T18:01:49Z</time>
      </trkpt>
      <trkpt lat="48.98965" lon="2.08293">
        <ele>22</ele>
        <time>2019-07-24T18:01:57Z</time>
      </trkpt>
      <trkpt lat="48.9897" lon="2.08306">
        <ele>22</ele>
        <time>2019-07-24T18:02:07Z</time>
      </trkpt>
      <trkpt lat="48.98973" lon="2.08319">
        <ele>23</ele>
        <time>2019-07-24T18:02:13Z</time>
      </trkpt>
      <trkpt lat="48.98976" lon="2.08334">
        <ele>23</ele>
        <time>2019-07-24T18:02:21Z</time>
      </trkpt>
      <trkpt lat="48.98974" lon="2.08348">
        <ele>22</ele>
        <time>2019-07-24T18:02:27Z</time>
      </trkpt>
      <trkpt lat="48.98976" lon="2.08362">
        <ele>22</ele>
        <time>2019-07-24T18:02:34Z</time>
      </trkpt>
      <trkpt lat="48.98979" lon="2.08376">
        <ele>22</ele>
        <time>2019-07-24T18:02:43Z</time>
      </trkpt>
      <trkpt lat="48.98979" lon="2.08391">
        <ele>22</ele>
        <time>2019-07-24T18:02:54Z</time>
      </trkpt>
      <trkpt lat="48.98982" lon="2.08406">
        <ele>22</ele>
        <time>2019-07-24T18:03:00Z</time>
      </trkpt>
      <trkpt lat="48.98984" lon="2.0842">
        <ele>22</ele>
        <time>2019-07-24T18:03:12Z</time>
      </trkpt>
      <trkpt lat="48.98988" lon="2.08434">
        <ele>22</ele>
        <time>2019-07-24T18:03:21Z</time>
      </trkpt>
      <trkpt lat="48.98987" lon="2.08448">
        <ele>22</ele>
        <time>2019-07-24T18:03:30Z</time>
      </trkpt>
      <trkpt lat="48.98986" lon="2.08462">
        <ele>22</ele>
        <time>2019-07-24T18:03:39Z</time>
      </trkpt>
      <trkpt lat="48.9899" lon="2.08476">
        <ele>22</ele>
        <time>2019-07-24T18:03:44Z</time>
      </trkpt>
      <trkpt lat="48.98993" lon="2.08489">
        <ele>22</ele>
        <time>2019-07-24T18:03:50Z</time>
      </trkpt>
      <trkpt lat="48.98998" lon="2.08506">
        <ele>22</ele>
        <time>2019-07-24T18:03:56Z</time>
      </trkpt>
      <trkpt lat="48.99003" lon="2.08519">
        <ele>26</ele>
        <time>2019-07-24T18:04:02Z</time>
      </trkpt>
      <trkpt lat="48.99006" lon="2.08533">
        <ele>26</ele>
        <time>2019-07-24T18:04:08Z</time>
      </trkpt>
      <trkpt lat="48.99011" lon="2.08546">
        <ele>27</ele>
        <time>2019-07-24T18:04:18Z</time>
      </trkpt>
      <trkpt lat="48.99014" lon="2.08559">
        <ele>26</ele>
        <time>2019-07-24T18:04:26Z</time>
      </trkpt>
      <trkpt lat="48.9902" lon="2.0857">
        <ele>26</ele>
        <time>2019-07-24T18:04:32Z</time>
      </trkpt>
      <trkpt lat="48.99025" lon="2.08582">
        <ele>26</ele>
        <time>2019-07-24T18:04:36Z</time>
      </trkpt>
      <trkpt lat="48.99029" lon="2.08594">
        <ele>25</ele>
        <time>2019-07-24T18:04:50Z</time>
      </trkpt>
    </trkseg>
  </trk>
</gpx>